<?xml version="1.0" encoding="UTF-8" standalone="no" ?>
<gpx xmlns="http://www.topografix.com/GPX/1/1" xmlns:xsi="http://www.w3.org/2001/XMLSchema-instance" xsi:schemaLocation="http://www.topografix.com/GPX/1/1 http://www.topografix.com/GPX/1/1/gpx.xsd" version="1.1" creator="VisuGPX - https://www.visugpx.com">
  <metadata>
    <name>Trail 13km Fontenilles 2017</name>
    <desc><![CDATA[Trail 13km Fontenilles 2017 qui a lieu en même temps que des courses VTT]]></desc>
  </metadata>
  <trk>
    <name><![CDATA[Running 6/4/17 9:34 am]]></name>
    <trkseg>
      <trkpt lat="43.55749" lon="1.17654">
        <ele>208.5</ele>
        <time>2017-06-04T07:34:31Z</time>
      </trkpt>
      <trkpt lat="43.5575" lon="1.17641">
        <ele>208.6</ele>
        <time>2017-06-04T07:34:37Z</time>
      </trkpt>
      <trkpt lat="43.55754" lon="1.17627">
        <ele>208.5</ele>
        <time>2017-06-04T07:34:42Z</time>
      </trkpt>
      <trkpt lat="43.55758" lon="1.17614">
        <ele>208.4</ele>
        <time>2017-06-04T07:34:48Z</time>
      </trkpt>
      <trkpt lat="43.55765" lon="1.17601">
        <ele>208.4</ele>
        <time>2017-06-04T07:34:53Z</time>
      </trkpt>
      <trkpt lat="43.55769" lon="1.17589">
        <ele>208.4</ele>
        <time>2017-06-04T07:34:57Z</time>
      </trkpt>
      <trkpt lat="43.55773" lon="1.17576">
        <ele>208.4</ele>
        <time>2017-06-04T07:35:02Z</time>
      </trkpt>
      <trkpt lat="43.55777" lon="1.17563">
        <ele>208.5</ele>
        <time>2017-06-04T07:35:07Z</time>
      </trkpt>
      <trkpt lat="43.5578" lon="1.17548">
        <ele>208.6</ele>
        <time>2017-06-04T07:35:12Z</time>
      </trkpt>
      <trkpt lat="43.55783" lon="1.17536">
        <ele>208.8</ele>
        <time>2017-06-04T07:35:16Z</time>
      </trkpt>
      <trkpt lat="43.55786" lon="1.17522">
        <ele>208.9</ele>
        <time>2017-06-04T07:35:21Z</time>
      </trkpt>
      <trkpt lat="43.55788" lon="1.17508">
        <ele>208.9</ele>
        <time>2017-06-04T07:35:26Z</time>
      </trkpt>
      <trkpt lat="43.55791" lon="1.17494">
        <ele>208.8</ele>
        <time>2017-06-04T07:35:31Z</time>
      </trkpt>
      <trkpt lat="43.55793" lon="1.17482">
        <ele>208.8</ele>
        <time>2017-06-04T07:35:35Z</time>
      </trkpt>
      <trkpt lat="43.55796" lon="1.17468">
        <ele>208.7</ele>
        <time>2017-06-04T07:35:40Z</time>
      </trkpt>
      <trkpt lat="43.55799" lon="1.17455">
        <ele>208.5</ele>
        <time>2017-06-04T07:35:45Z</time>
      </trkpt>
      <trkpt lat="43.55803" lon="1.17441">
        <ele>208.3</ele>
        <time>2017-06-04T07:35:50Z</time>
      </trkpt>
      <trkpt lat="43.55807" lon="1.17427">
        <ele>207.8</ele>
        <time>2017-06-04T07:35:55Z</time>
      </trkpt>
      <trkpt lat="43.55812" lon="1.17414">
        <ele>207.4</ele>
        <time>2017-06-04T07:36:00Z</time>
      </trkpt>
      <trkpt lat="43.55816" lon="1.17401">
        <ele>206.8</ele>
        <time>2017-06-04T07:36:05Z</time>
      </trkpt>
      <trkpt lat="43.5582" lon="1.17388">
        <ele>206.4</ele>
        <time>2017-06-04T07:36:10Z</time>
      </trkpt>
      <trkpt lat="43.55825" lon="1.17375">
        <ele>206</ele>
        <time>2017-06-04T07:36:15Z</time>
      </trkpt>
      <trkpt lat="43.55829" lon="1.17361">
        <ele>205.7</ele>
        <time>2017-06-04T07:36:20Z</time>
      </trkpt>
      <trkpt lat="43.55831" lon="1.17347">
        <ele>205.5</ele>
        <time>2017-06-04T07:36:25Z</time>
      </trkpt>
      <trkpt lat="43.55831" lon="1.17335">
        <ele>205.4</ele>
        <time>2017-06-04T07:36:29Z</time>
      </trkpt>
      <trkpt lat="43.55835" lon="1.17321">
        <ele>205.3</ele>
        <time>2017-06-04T07:36:34Z</time>
      </trkpt>
      <trkpt lat="43.55839" lon="1.17308">
        <ele>205.2</ele>
        <time>2017-06-04T07:36:39Z</time>
      </trkpt>
      <trkpt lat="43.55841" lon="1.17294">
        <ele>205.1</ele>
        <time>2017-06-04T07:36:44Z</time>
      </trkpt>
      <trkpt lat="43.55843" lon="1.1728">
        <ele>205.1</ele>
        <time>2017-06-04T07:36:49Z</time>
      </trkpt>
      <trkpt lat="43.55846" lon="1.17267">
        <ele>205.3</ele>
        <time>2017-06-04T07:36:54Z</time>
      </trkpt>
      <trkpt lat="43.5585" lon="1.17254">
        <ele>205.5</ele>
        <time>2017-06-04T07:36:59Z</time>
      </trkpt>
      <trkpt lat="43.55854" lon="1.17242">
        <ele>205.8</ele>
        <time>2017-06-04T07:37:04Z</time>
      </trkpt>
      <trkpt lat="43.55857" lon="1.1723">
        <ele>206</ele>
        <time>2017-06-04T07:37:09Z</time>
      </trkpt>
      <trkpt lat="43.5586" lon="1.17216">
        <ele>206.2</ele>
        <time>2017-06-04T07:37:14Z</time>
      </trkpt>
      <trkpt lat="43.55862" lon="1.17202">
        <ele>206.5</ele>
        <time>2017-06-04T07:37:20Z</time>
      </trkpt>
      <trkpt lat="43.55865" lon="1.17189">
        <ele>206.6</ele>
        <time>2017-06-04T07:37:25Z</time>
      </trkpt>
      <trkpt lat="43.55868" lon="1.17176">
        <ele>206.8</ele>
        <time>2017-06-04T07:37:30Z</time>
      </trkpt>
      <trkpt lat="43.55871" lon="1.17164">
        <ele>207.1</ele>
        <time>2017-06-04T07:37:35Z</time>
      </trkpt>
      <trkpt lat="43.55875" lon="1.17151">
        <ele>207.4</ele>
        <time>2017-06-04T07:37:40Z</time>
      </trkpt>
      <trkpt lat="43.55877" lon="1.17138">
        <ele>207.6</ele>
        <time>2017-06-04T07:37:45Z</time>
      </trkpt>
      <trkpt lat="43.55879" lon="1.17125">
        <ele>207.6</ele>
        <time>2017-06-04T07:37:50Z</time>
      </trkpt>
      <trkpt lat="43.55882" lon="1.17112">
        <ele>207.5</ele>
        <time>2017-06-04T07:37:55Z</time>
      </trkpt>
      <trkpt lat="43.55886" lon="1.17099">
        <ele>207.5</ele>
        <time>2017-06-04T07:38:00Z</time>
      </trkpt>
      <trkpt lat="43.5589" lon="1.17086">
        <ele>207.4</ele>
        <time>2017-06-04T07:38:05Z</time>
      </trkpt>
      <trkpt lat="43.55893" lon="1.17074">
        <ele>207.4</ele>
        <time>2017-06-04T07:38:10Z</time>
      </trkpt>
      <trkpt lat="43.55897" lon="1.17061">
        <ele>207.3</ele>
        <time>2017-06-04T07:38:15Z</time>
      </trkpt>
      <trkpt lat="43.55901" lon="1.17048">
        <ele>207.4</ele>
        <time>2017-06-04T07:38:20Z</time>
      </trkpt>
      <trkpt lat="43.55906" lon="1.17035">
        <ele>207.6</ele>
        <time>2017-06-04T07:38:25Z</time>
      </trkpt>
      <trkpt lat="43.55911" lon="1.17023">
        <ele>207.9</ele>
        <time>2017-06-04T07:38:30Z</time>
      </trkpt>
      <trkpt lat="43.55915" lon="1.17011">
        <ele>208.3</ele>
        <time>2017-06-04T07:38:35Z</time>
      </trkpt>
      <trkpt lat="43.55919" lon="1.16998">
        <ele>208.6</ele>
        <time>2017-06-04T07:38:40Z</time>
      </trkpt>
      <trkpt lat="43.55923" lon="1.16986">
        <ele>209.1</ele>
        <time>2017-06-04T07:38:45Z</time>
      </trkpt>
      <trkpt lat="43.55926" lon="1.16974">
        <ele>209.5</ele>
        <time>2017-06-04T07:38:50Z</time>
      </trkpt>
      <trkpt lat="43.55927" lon="1.1696">
        <ele>210</ele>
        <time>2017-06-04T07:38:56Z</time>
      </trkpt>
      <trkpt lat="43.55921" lon="1.16951">
        <ele>210.5</ele>
        <time>2017-06-04T07:39:00Z</time>
      </trkpt>
      <trkpt lat="43.55915" lon="1.1694">
        <ele>210.8</ele>
        <time>2017-06-04T07:39:04Z</time>
      </trkpt>
      <trkpt lat="43.55911" lon="1.16928">
        <ele>211.2</ele>
        <time>2017-06-04T07:39:09Z</time>
      </trkpt>
      <trkpt lat="43.55909" lon="1.16915">
        <ele>211.5</ele>
        <time>2017-06-04T07:39:14Z</time>
      </trkpt>
      <trkpt lat="43.55909" lon="1.16902">
        <ele>211.7</ele>
        <time>2017-06-04T07:39:19Z</time>
      </trkpt>
      <trkpt lat="43.55909" lon="1.16889">
        <ele>211.9</ele>
        <time>2017-06-04T07:39:24Z</time>
      </trkpt>
      <trkpt lat="43.55901" lon="1.16877">
        <ele>212.2</ele>
        <time>2017-06-04T07:39:29Z</time>
      </trkpt>
      <trkpt lat="43.55893" lon="1.16868">
        <ele>212.5</ele>
        <time>2017-06-04T07:39:34Z</time>
      </trkpt>
      <trkpt lat="43.55893" lon="1.16853">
        <ele>212.7</ele>
        <time>2017-06-04T07:39:40Z</time>
      </trkpt>
      <trkpt lat="43.55887" lon="1.16841">
        <ele>213</ele>
        <time>2017-06-04T07:39:46Z</time>
      </trkpt>
      <trkpt lat="43.55884" lon="1.16829">
        <ele>213.2</ele>
        <time>2017-06-04T07:39:51Z</time>
      </trkpt>
      <trkpt lat="43.55882" lon="1.16817">
        <ele>213.4</ele>
        <time>2017-06-04T07:39:56Z</time>
      </trkpt>
      <trkpt lat="43.55881" lon="1.16804">
        <ele>213.5</ele>
        <time>2017-06-04T07:40:00Z</time>
      </trkpt>
      <trkpt lat="43.55878" lon="1.16791">
        <ele>213.5</ele>
        <time>2017-06-04T07:40:05Z</time>
      </trkpt>
      <trkpt lat="43.55872" lon="1.1678">
        <ele>213.5</ele>
        <time>2017-06-04T07:40:10Z</time>
      </trkpt>
      <trkpt lat="43.55863" lon="1.16773">
        <ele>213.6</ele>
        <time>2017-06-04T07:40:15Z</time>
      </trkpt>
      <trkpt lat="43.55853" lon="1.16769">
        <ele>213.8</ele>
        <time>2017-06-04T07:40:20Z</time>
      </trkpt>
      <trkpt lat="43.55844" lon="1.1676">
        <ele>213.9</ele>
        <time>2017-06-04T07:40:25Z</time>
      </trkpt>
      <trkpt lat="43.55836" lon="1.16753">
        <ele>214.1</ele>
        <time>2017-06-04T07:40:30Z</time>
      </trkpt>
      <trkpt lat="43.5583" lon="1.16743">
        <ele>214.3</ele>
        <time>2017-06-04T07:40:35Z</time>
      </trkpt>
      <trkpt lat="43.55824" lon="1.16733">
        <ele>214.5</ele>
        <time>2017-06-04T07:40:40Z</time>
      </trkpt>
      <trkpt lat="43.55818" lon="1.16722">
        <ele>214.7</ele>
        <time>2017-06-04T07:40:46Z</time>
      </trkpt>
      <trkpt lat="43.55812" lon="1.16713">
        <ele>215</ele>
        <time>2017-06-04T07:40:53Z</time>
      </trkpt>
      <trkpt lat="43.55807" lon="1.16701">
        <ele>215.4</ele>
        <time>2017-06-04T07:40:58Z</time>
      </trkpt>
      <trkpt lat="43.558" lon="1.1669">
        <ele>215.8</ele>
        <time>2017-06-04T07:41:03Z</time>
      </trkpt>
      <trkpt lat="43.55792" lon="1.16681">
        <ele>216.4</ele>
        <time>2017-06-04T07:41:08Z</time>
      </trkpt>
      <trkpt lat="43.55786" lon="1.16672">
        <ele>216.9</ele>
        <time>2017-06-04T07:41:13Z</time>
      </trkpt>
      <trkpt lat="43.55778" lon="1.16663">
        <ele>217.4</ele>
        <time>2017-06-04T07:41:19Z</time>
      </trkpt>
      <trkpt lat="43.5577" lon="1.16656">
        <ele>217.8</ele>
        <time>2017-06-04T07:41:24Z</time>
      </trkpt>
      <trkpt lat="43.55764" lon="1.16647">
        <ele>218.2</ele>
        <time>2017-06-04T07:41:29Z</time>
      </trkpt>
      <trkpt lat="43.55757" lon="1.16639">
        <ele>218.5</ele>
        <time>2017-06-04T07:41:34Z</time>
      </trkpt>
      <trkpt lat="43.55749" lon="1.1663">
        <ele>219</ele>
        <time>2017-06-04T07:41:39Z</time>
      </trkpt>
      <trkpt lat="43.55741" lon="1.16622">
        <ele>219.4</ele>
        <time>2017-06-04T07:41:44Z</time>
      </trkpt>
      <trkpt lat="43.55732" lon="1.16616">
        <ele>219.7</ele>
        <time>2017-06-04T07:41:49Z</time>
      </trkpt>
      <trkpt lat="43.55725" lon="1.16609">
        <ele>220.1</ele>
        <time>2017-06-04T07:41:54Z</time>
      </trkpt>
      <trkpt lat="43.55717" lon="1.16599">
        <ele>220.3</ele>
        <time>2017-06-04T07:41:59Z</time>
      </trkpt>
      <trkpt lat="43.55709" lon="1.16594">
        <ele>220.4</ele>
        <time>2017-06-04T07:42:04Z</time>
      </trkpt>
      <trkpt lat="43.55701" lon="1.16585">
        <ele>220.4</ele>
        <time>2017-06-04T07:42:09Z</time>
      </trkpt>
      <trkpt lat="43.55693" lon="1.16576">
        <ele>220.3</ele>
        <time>2017-06-04T07:42:13Z</time>
      </trkpt>
      <trkpt lat="43.55685" lon="1.16569">
        <ele>220.2</ele>
        <time>2017-06-04T07:42:18Z</time>
      </trkpt>
      <trkpt lat="43.55676" lon="1.16565">
        <ele>220.2</ele>
        <time>2017-06-04T07:42:23Z</time>
      </trkpt>
      <trkpt lat="43.55666" lon="1.16563">
        <ele>220.2</ele>
        <time>2017-06-04T07:42:28Z</time>
      </trkpt>
      <trkpt lat="43.55656" lon="1.16561">
        <ele>220.1</ele>
        <time>2017-06-04T07:42:33Z</time>
      </trkpt>
      <trkpt lat="43.55646" lon="1.16561">
        <ele>220</ele>
        <time>2017-06-04T07:42:38Z</time>
      </trkpt>
      <trkpt lat="43.55636" lon="1.16562">
        <ele>219.9</ele>
        <time>2017-06-04T07:42:43Z</time>
      </trkpt>
      <trkpt lat="43.55626" lon="1.1656">
        <ele>219.8</ele>
        <time>2017-06-04T07:42:48Z</time>
      </trkpt>
      <trkpt lat="43.55615" lon="1.16558">
        <ele>219.7</ele>
        <time>2017-06-04T07:42:54Z</time>
      </trkpt>
      <trkpt lat="43.55606" lon="1.16563">
        <ele>219.5</ele>
        <time>2017-06-04T07:43:01Z</time>
      </trkpt>
      <trkpt lat="43.55596" lon="1.1656">
        <ele>219.3</ele>
        <time>2017-06-04T07:43:06Z</time>
      </trkpt>
      <trkpt lat="43.55585" lon="1.1656">
        <ele>219</ele>
        <time>2017-06-04T07:43:11Z</time>
      </trkpt>
      <trkpt lat="43.55576" lon="1.16557">
        <ele>218.6</ele>
        <time>2017-06-04T07:43:15Z</time>
      </trkpt>
      <trkpt lat="43.55566" lon="1.16554">
        <ele>218.1</ele>
        <time>2017-06-04T07:43:20Z</time>
      </trkpt>
      <trkpt lat="43.55555" lon="1.16554">
        <ele>217.5</ele>
        <time>2017-06-04T07:43:26Z</time>
      </trkpt>
      <trkpt lat="43.55545" lon="1.16551">
        <ele>216.9</ele>
        <time>2017-06-04T07:43:31Z</time>
      </trkpt>
      <trkpt lat="43.55535" lon="1.16547">
        <ele>216.4</ele>
        <time>2017-06-04T07:43:35Z</time>
      </trkpt>
      <trkpt lat="43.55526" lon="1.16544">
        <ele>215.9</ele>
        <time>2017-06-04T07:43:39Z</time>
      </trkpt>
      <trkpt lat="43.55516" lon="1.1654">
        <ele>215.5</ele>
        <time>2017-06-04T07:43:43Z</time>
      </trkpt>
      <trkpt lat="43.55507" lon="1.16537">
        <ele>215.1</ele>
        <time>2017-06-04T07:43:48Z</time>
      </trkpt>
      <trkpt lat="43.55497" lon="1.16535">
        <ele>214.9</ele>
        <time>2017-06-04T07:43:53Z</time>
      </trkpt>
      <trkpt lat="43.55486" lon="1.16533">
        <ele>214.8</ele>
        <time>2017-06-04T07:43:58Z</time>
      </trkpt>
      <trkpt lat="43.55477" lon="1.16531">
        <ele>214.8</ele>
        <time>2017-06-04T07:44:03Z</time>
      </trkpt>
      <trkpt lat="43.55466" lon="1.16525">
        <ele>214.9</ele>
        <time>2017-06-04T07:44:08Z</time>
      </trkpt>
      <trkpt lat="43.55457" lon="1.16521">
        <ele>215.2</ele>
        <time>2017-06-04T07:44:13Z</time>
      </trkpt>
      <trkpt lat="43.55448" lon="1.16516">
        <ele>215.5</ele>
        <time>2017-06-04T07:44:18Z</time>
      </trkpt>
      <trkpt lat="43.55439" lon="1.16515">
        <ele>216</ele>
        <time>2017-06-04T07:44:24Z</time>
      </trkpt>
      <trkpt lat="43.55429" lon="1.16513">
        <ele>216.5</ele>
        <time>2017-06-04T07:44:29Z</time>
      </trkpt>
      <trkpt lat="43.55418" lon="1.16515">
        <ele>216.8</ele>
        <time>2017-06-04T07:44:34Z</time>
      </trkpt>
      <trkpt lat="43.55408" lon="1.1651">
        <ele>217.2</ele>
        <time>2017-06-04T07:44:39Z</time>
      </trkpt>
      <trkpt lat="43.554" lon="1.165">
        <ele>217.5</ele>
        <time>2017-06-04T07:44:44Z</time>
      </trkpt>
      <trkpt lat="43.55392" lon="1.16493">
        <ele>217.9</ele>
        <time>2017-06-04T07:44:49Z</time>
      </trkpt>
      <trkpt lat="43.55387" lon="1.16481">
        <ele>218.4</ele>
        <time>2017-06-04T07:44:54Z</time>
      </trkpt>
      <trkpt lat="43.55386" lon="1.16466">
        <ele>218.8</ele>
        <time>2017-06-04T07:44:59Z</time>
      </trkpt>
      <trkpt lat="43.55386" lon="1.16453">
        <ele>219.3</ele>
        <time>2017-06-04T07:45:04Z</time>
      </trkpt>
      <trkpt lat="43.55392" lon="1.16442">
        <ele>219.7</ele>
        <time>2017-06-04T07:45:08Z</time>
      </trkpt>
      <trkpt lat="43.554" lon="1.16432">
        <ele>220.2</ele>
        <time>2017-06-04T07:45:13Z</time>
      </trkpt>
      <trkpt lat="43.55408" lon="1.16425">
        <ele>220.6</ele>
        <time>2017-06-04T07:45:17Z</time>
      </trkpt>
      <trkpt lat="43.55414" lon="1.16415">
        <ele>221.1</ele>
        <time>2017-06-04T07:45:22Z</time>
      </trkpt>
      <trkpt lat="43.55414" lon="1.16401">
        <ele>221.7</ele>
        <time>2017-06-04T07:45:28Z</time>
      </trkpt>
      <trkpt lat="43.55415" lon="1.16388">
        <ele>222.5</ele>
        <time>2017-06-04T07:45:35Z</time>
      </trkpt>
      <trkpt lat="43.55422" lon="1.16379">
        <ele>223.3</ele>
        <time>2017-06-04T07:45:40Z</time>
      </trkpt>
      <trkpt lat="43.55424" lon="1.16366">
        <ele>224</ele>
        <time>2017-06-04T07:45:47Z</time>
      </trkpt>
      <trkpt lat="43.55426" lon="1.16353">
        <ele>224.7</ele>
        <time>2017-06-04T07:45:54Z</time>
      </trkpt>
      <trkpt lat="43.5543" lon="1.1634">
        <ele>225.5</ele>
        <time>2017-06-04T07:46:00Z</time>
      </trkpt>
      <trkpt lat="43.55439" lon="1.16335">
        <ele>226.5</ele>
        <time>2017-06-04T07:46:07Z</time>
      </trkpt>
      <trkpt lat="43.55449" lon="1.16336">
        <ele>227.5</ele>
        <time>2017-06-04T07:46:13Z</time>
      </trkpt>
      <trkpt lat="43.55458" lon="1.16334">
        <ele>228.6</ele>
        <time>2017-06-04T07:46:18Z</time>
      </trkpt>
      <trkpt lat="43.55468" lon="1.16331">
        <ele>229.8</ele>
        <time>2017-06-04T07:46:24Z</time>
      </trkpt>
      <trkpt lat="43.55477" lon="1.16324">
        <ele>231</ele>
        <time>2017-06-04T07:46:30Z</time>
      </trkpt>
      <trkpt lat="43.55485" lon="1.16315">
        <ele>232.1</ele>
        <time>2017-06-04T07:46:36Z</time>
      </trkpt>
      <trkpt lat="43.55493" lon="1.16306">
        <ele>233.2</ele>
        <time>2017-06-04T07:46:42Z</time>
      </trkpt>
      <trkpt lat="43.555" lon="1.16295">
        <ele>234.2</ele>
        <time>2017-06-04T07:46:47Z</time>
      </trkpt>
      <trkpt lat="43.55508" lon="1.16287">
        <ele>235.3</ele>
        <time>2017-06-04T07:46:53Z</time>
      </trkpt>
      <trkpt lat="43.55518" lon="1.16282">
        <ele>236.3</ele>
        <time>2017-06-04T07:46:58Z</time>
      </trkpt>
      <trkpt lat="43.55528" lon="1.16276">
        <ele>237.2</ele>
        <time>2017-06-04T07:47:03Z</time>
      </trkpt>
      <trkpt lat="43.55536" lon="1.16267">
        <ele>237.9</ele>
        <time>2017-06-04T07:47:08Z</time>
      </trkpt>
      <trkpt lat="43.55543" lon="1.16257">
        <ele>238.5</ele>
        <time>2017-06-04T07:47:13Z</time>
      </trkpt>
      <trkpt lat="43.5555" lon="1.16249">
        <ele>239.1</ele>
        <time>2017-06-04T07:47:18Z</time>
      </trkpt>
      <trkpt lat="43.55558" lon="1.16242">
        <ele>239.6</ele>
        <time>2017-06-04T07:47:23Z</time>
      </trkpt>
      <trkpt lat="43.55564" lon="1.16233">
        <ele>240.1</ele>
        <time>2017-06-04T07:47:28Z</time>
      </trkpt>
      <trkpt lat="43.55571" lon="1.16222">
        <ele>240.5</ele>
        <time>2017-06-04T07:47:34Z</time>
      </trkpt>
      <trkpt lat="43.55578" lon="1.16214">
        <ele>241</ele>
        <time>2017-06-04T07:47:39Z</time>
      </trkpt>
      <trkpt lat="43.55584" lon="1.16204">
        <ele>241.5</ele>
        <time>2017-06-04T07:47:44Z</time>
      </trkpt>
      <trkpt lat="43.55592" lon="1.16195">
        <ele>242</ele>
        <time>2017-06-04T07:47:49Z</time>
      </trkpt>
      <trkpt lat="43.55599" lon="1.16185">
        <ele>242.5</ele>
        <time>2017-06-04T07:47:55Z</time>
      </trkpt>
      <trkpt lat="43.55606" lon="1.16175">
        <ele>243.1</ele>
        <time>2017-06-04T07:48:01Z</time>
      </trkpt>
      <trkpt lat="43.55613" lon="1.16167">
        <ele>243.5</ele>
        <time>2017-06-04T07:48:06Z</time>
      </trkpt>
      <trkpt lat="43.55622" lon="1.16159">
        <ele>244</ele>
        <time>2017-06-04T07:48:11Z</time>
      </trkpt>
      <trkpt lat="43.55631" lon="1.16153">
        <ele>244.3</ele>
        <time>2017-06-04T07:48:15Z</time>
      </trkpt>
      <trkpt lat="43.55638" lon="1.16145">
        <ele>244.5</ele>
        <time>2017-06-04T07:48:20Z</time>
      </trkpt>
      <trkpt lat="43.55642" lon="1.16133">
        <ele>244.6</ele>
        <time>2017-06-04T07:48:26Z</time>
      </trkpt>
      <trkpt lat="43.55637" lon="1.16122">
        <ele>244.6</ele>
        <time>2017-06-04T07:48:31Z</time>
      </trkpt>
      <trkpt lat="43.55644" lon="1.16112">
        <ele>244.5</ele>
        <time>2017-06-04T07:48:37Z</time>
      </trkpt>
      <trkpt lat="43.55652" lon="1.16106">
        <ele>244.4</ele>
        <time>2017-06-04T07:48:41Z</time>
      </trkpt>
      <trkpt lat="43.5566" lon="1.16098">
        <ele>244.2</ele>
        <time>2017-06-04T07:48:46Z</time>
      </trkpt>
      <trkpt lat="43.55666" lon="1.16088">
        <ele>243.9</ele>
        <time>2017-06-04T07:48:50Z</time>
      </trkpt>
      <trkpt lat="43.55674" lon="1.16078">
        <ele>243.7</ele>
        <time>2017-06-04T07:48:55Z</time>
      </trkpt>
      <trkpt lat="43.55684" lon="1.16075">
        <ele>243.7</ele>
        <time>2017-06-04T07:49:00Z</time>
      </trkpt>
      <trkpt lat="43.55691" lon="1.16066">
        <ele>243.9</ele>
        <time>2017-06-04T07:49:08Z</time>
      </trkpt>
      <trkpt lat="43.557" lon="1.16057">
        <ele>244.3</ele>
        <time>2017-06-04T07:49:14Z</time>
      </trkpt>
      <trkpt lat="43.55706" lon="1.16048">
        <ele>244.6</ele>
        <time>2017-06-04T07:49:19Z</time>
      </trkpt>
      <trkpt lat="43.55705" lon="1.16035">
        <ele>245.1</ele>
        <time>2017-06-04T07:49:23Z</time>
      </trkpt>
      <trkpt lat="43.55702" lon="1.16023">
        <ele>245.6</ele>
        <time>2017-06-04T07:49:28Z</time>
      </trkpt>
      <trkpt lat="43.55697" lon="1.16011">
        <ele>246.2</ele>
        <time>2017-06-04T07:49:32Z</time>
      </trkpt>
      <trkpt lat="43.55694" lon="1.15998">
        <ele>246.7</ele>
        <time>2017-06-04T07:49:37Z</time>
      </trkpt>
      <trkpt lat="43.55697" lon="1.15986">
        <ele>247.3</ele>
        <time>2017-06-04T07:49:44Z</time>
      </trkpt>
      <trkpt lat="43.55699" lon="1.15971">
        <ele>247.9</ele>
        <time>2017-06-04T07:49:51Z</time>
      </trkpt>
      <trkpt lat="43.55695" lon="1.15958">
        <ele>248.5</ele>
        <time>2017-06-04T07:49:55Z</time>
      </trkpt>
      <trkpt lat="43.55694" lon="1.15946">
        <ele>249</ele>
        <time>2017-06-04T07:49:59Z</time>
      </trkpt>
      <trkpt lat="43.55694" lon="1.15933">
        <ele>249.5</ele>
        <time>2017-06-04T07:50:04Z</time>
      </trkpt>
      <trkpt lat="43.55693" lon="1.15918">
        <ele>249.9</ele>
        <time>2017-06-04T07:50:10Z</time>
      </trkpt>
      <trkpt lat="43.55695" lon="1.15905">
        <ele>250.4</ele>
        <time>2017-06-04T07:50:16Z</time>
      </trkpt>
      <trkpt lat="43.55704" lon="1.15904">
        <ele>250.8</ele>
        <time>2017-06-04T07:50:27Z</time>
      </trkpt>
      <trkpt lat="43.55707" lon="1.15892">
        <ele>251.3</ele>
        <time>2017-06-04T07:50:34Z</time>
      </trkpt>
      <trkpt lat="43.55705" lon="1.15879">
        <ele>251.7</ele>
        <time>2017-06-04T07:50:46Z</time>
      </trkpt>
      <trkpt lat="43.55701" lon="1.15866">
        <ele>252.2</ele>
        <time>2017-06-04T07:50:51Z</time>
      </trkpt>
      <trkpt lat="43.55699" lon="1.15851">
        <ele>252.7</ele>
        <time>2017-06-04T07:50:57Z</time>
      </trkpt>
      <trkpt lat="43.55695" lon="1.15839">
        <ele>253.2</ele>
        <time>2017-06-04T07:51:02Z</time>
      </trkpt>
      <trkpt lat="43.55689" lon="1.15829">
        <ele>253.7</ele>
        <time>2017-06-04T07:51:09Z</time>
      </trkpt>
      <trkpt lat="43.5568" lon="1.15825">
        <ele>254.2</ele>
        <time>2017-06-04T07:51:17Z</time>
      </trkpt>
      <trkpt lat="43.55675" lon="1.15814">
        <ele>254.6</ele>
        <time>2017-06-04T07:51:27Z</time>
      </trkpt>
      <trkpt lat="43.55679" lon="1.15802">
        <ele>255.2</ele>
        <time>2017-06-04T07:51:36Z</time>
      </trkpt>
      <trkpt lat="43.55686" lon="1.15793">
        <ele>255.8</ele>
        <time>2017-06-04T07:51:42Z</time>
      </trkpt>
      <trkpt lat="43.55691" lon="1.15781">
        <ele>256.5</ele>
        <time>2017-06-04T07:51:48Z</time>
      </trkpt>
      <trkpt lat="43.55698" lon="1.15771">
        <ele>257.5</ele>
        <time>2017-06-04T07:51:54Z</time>
      </trkpt>
      <trkpt lat="43.55701" lon="1.15758">
        <ele>258.4</ele>
        <time>2017-06-04T07:52:02Z</time>
      </trkpt>
      <trkpt lat="43.55707" lon="1.15748">
        <ele>259.3</ele>
        <time>2017-06-04T07:52:07Z</time>
      </trkpt>
      <trkpt lat="43.55713" lon="1.15736">
        <ele>260.2</ele>
        <time>2017-06-04T07:52:13Z</time>
      </trkpt>
      <trkpt lat="43.55718" lon="1.15724">
        <ele>261.2</ele>
        <time>2017-06-04T07:52:19Z</time>
      </trkpt>
      <trkpt lat="43.55726" lon="1.15714">
        <ele>262.2</ele>
        <time>2017-06-04T07:52:24Z</time>
      </trkpt>
      <trkpt lat="43.5573" lon="1.15703">
        <ele>263.2</ele>
        <time>2017-06-04T07:52:30Z</time>
      </trkpt>
      <trkpt lat="43.55724" lon="1.15694">
        <ele>264.1</ele>
        <time>2017-06-04T07:52:36Z</time>
      </trkpt>
      <trkpt lat="43.55723" lon="1.15681">
        <ele>264.9</ele>
        <time>2017-06-04T07:52:44Z</time>
      </trkpt>
      <trkpt lat="43.55723" lon="1.15667">
        <ele>265.7</ele>
        <time>2017-06-04T07:52:48Z</time>
      </trkpt>
      <trkpt lat="43.55718" lon="1.15655">
        <ele>266.5</ele>
        <time>2017-06-04T07:52:54Z</time>
      </trkpt>
      <trkpt lat="43.55707" lon="1.15655">
        <ele>267.1</ele>
        <time>2017-06-04T07:52:58Z</time>
      </trkpt>
      <trkpt lat="43.55698" lon="1.15651">
        <ele>267.8</ele>
        <time>2017-06-04T07:53:02Z</time>
      </trkpt>
      <trkpt lat="43.55693" lon="1.15639">
        <ele>268.6</ele>
        <time>2017-06-04T07:53:07Z</time>
      </trkpt>
      <trkpt lat="43.55697" lon="1.15626">
        <ele>269.5</ele>
        <time>2017-06-04T07:53:11Z</time>
      </trkpt>
      <trkpt lat="43.55702" lon="1.15615">
        <ele>270.5</ele>
        <time>2017-06-04T07:53:15Z</time>
      </trkpt>
      <trkpt lat="43.55707" lon="1.15604">
        <ele>271.5</ele>
        <time>2017-06-04T07:53:21Z</time>
      </trkpt>
      <trkpt lat="43.55711" lon="1.15592">
        <ele>272.6</ele>
        <time>2017-06-04T07:53:28Z</time>
      </trkpt>
      <trkpt lat="43.55717" lon="1.15582">
        <ele>273.9</ele>
        <time>2017-06-04T07:53:36Z</time>
      </trkpt>
      <trkpt lat="43.55721" lon="1.1557">
        <ele>275.1</ele>
        <time>2017-06-04T07:53:43Z</time>
      </trkpt>
      <trkpt lat="43.55726" lon="1.15559">
        <ele>276.3</ele>
        <time>2017-06-04T07:53:52Z</time>
      </trkpt>
      <trkpt lat="43.5573" lon="1.15547">
        <ele>277.4</ele>
        <time>2017-06-04T07:53:59Z</time>
      </trkpt>
      <trkpt lat="43.55734" lon="1.15536">
        <ele>278.5</ele>
        <time>2017-06-04T07:54:07Z</time>
      </trkpt>
      <trkpt lat="43.55738" lon="1.15524">
        <ele>279.5</ele>
        <time>2017-06-04T07:54:14Z</time>
      </trkpt>
      <trkpt lat="43.55743" lon="1.15513">
        <ele>280.5</ele>
        <time>2017-06-04T07:54:21Z</time>
      </trkpt>
      <trkpt lat="43.55746" lon="1.155">
        <ele>281.5</ele>
        <time>2017-06-04T07:54:30Z</time>
      </trkpt>
      <trkpt lat="43.5575" lon="1.15487">
        <ele>282.3</ele>
        <time>2017-06-04T07:54:37Z</time>
      </trkpt>
      <trkpt lat="43.55753" lon="1.15474">
        <ele>282.8</ele>
        <time>2017-06-04T07:54:45Z</time>
      </trkpt>
      <trkpt lat="43.55755" lon="1.15462">
        <ele>283.2</ele>
        <time>2017-06-04T07:54:52Z</time>
      </trkpt>
      <trkpt lat="43.55759" lon="1.15449">
        <ele>283.3</ele>
        <time>2017-06-04T07:54:58Z</time>
      </trkpt>
      <trkpt lat="43.55761" lon="1.15435">
        <ele>283.3</ele>
        <time>2017-06-04T07:55:05Z</time>
      </trkpt>
      <trkpt lat="43.55762" lon="1.15423">
        <ele>283</ele>
        <time>2017-06-04T07:55:11Z</time>
      </trkpt>
      <trkpt lat="43.55759" lon="1.1541">
        <ele>282.5</ele>
        <time>2017-06-04T07:55:18Z</time>
      </trkpt>
      <trkpt lat="43.55751" lon="1.15404">
        <ele>281.7</ele>
        <time>2017-06-04T07:55:25Z</time>
      </trkpt>
      <trkpt lat="43.55742" lon="1.15399">
        <ele>280.7</ele>
        <time>2017-06-04T07:55:30Z</time>
      </trkpt>
      <trkpt lat="43.55735" lon="1.15388">
        <ele>279.7</ele>
        <time>2017-06-04T07:55:36Z</time>
      </trkpt>
      <trkpt lat="43.55734" lon="1.15375">
        <ele>278.6</ele>
        <time>2017-06-04T07:55:40Z</time>
      </trkpt>
      <trkpt lat="43.55733" lon="1.1536">
        <ele>277.5</ele>
        <time>2017-06-04T07:55:44Z</time>
      </trkpt>
      <trkpt lat="43.55731" lon="1.15347">
        <ele>276.6</ele>
        <time>2017-06-04T07:55:48Z</time>
      </trkpt>
      <trkpt lat="43.55728" lon="1.15334">
        <ele>275.6</ele>
        <time>2017-06-04T07:55:52Z</time>
      </trkpt>
      <trkpt lat="43.55725" lon="1.15321">
        <ele>274.8</ele>
        <time>2017-06-04T07:55:56Z</time>
      </trkpt>
      <trkpt lat="43.55723" lon="1.15309">
        <ele>274.1</ele>
        <time>2017-06-04T07:56:00Z</time>
      </trkpt>
      <trkpt lat="43.55719" lon="1.15296">
        <ele>273.5</ele>
        <time>2017-06-04T07:56:04Z</time>
      </trkpt>
      <trkpt lat="43.55715" lon="1.15282">
        <ele>273.3</ele>
        <time>2017-06-04T07:56:08Z</time>
      </trkpt>
      <trkpt lat="43.55712" lon="1.15269">
        <ele>273.1</ele>
        <time>2017-06-04T07:56:12Z</time>
      </trkpt>
      <trkpt lat="43.5571" lon="1.15256">
        <ele>273.1</ele>
        <time>2017-06-04T07:56:16Z</time>
      </trkpt>
      <trkpt lat="43.5571" lon="1.15241">
        <ele>273</ele>
        <time>2017-06-04T07:56:22Z</time>
      </trkpt>
      <trkpt lat="43.5571" lon="1.15227">
        <ele>272.9</ele>
        <time>2017-06-04T07:56:27Z</time>
      </trkpt>
      <trkpt lat="43.5571" lon="1.15211">
        <ele>272.8</ele>
        <time>2017-06-04T07:56:32Z</time>
      </trkpt>
      <trkpt lat="43.55709" lon="1.15198">
        <ele>272.5</ele>
        <time>2017-06-04T07:56:36Z</time>
      </trkpt>
      <trkpt lat="43.55707" lon="1.15183">
        <ele>272.3</ele>
        <time>2017-06-04T07:56:41Z</time>
      </trkpt>
      <trkpt lat="43.55705" lon="1.15167">
        <ele>272</ele>
        <time>2017-06-04T07:56:45Z</time>
      </trkpt>
      <trkpt lat="43.55703" lon="1.15152">
        <ele>271.6</ele>
        <time>2017-06-04T07:56:50Z</time>
      </trkpt>
      <trkpt lat="43.55703" lon="1.15138">
        <ele>271.2</ele>
        <time>2017-06-04T07:56:54Z</time>
      </trkpt>
      <trkpt lat="43.55701" lon="1.15123">
        <ele>270.6</ele>
        <time>2017-06-04T07:56:59Z</time>
      </trkpt>
      <trkpt lat="43.55699" lon="1.15109">
        <ele>270</ele>
        <time>2017-06-04T07:57:04Z</time>
      </trkpt>
      <trkpt lat="43.55697" lon="1.15095">
        <ele>269.3</ele>
        <time>2017-06-04T07:57:09Z</time>
      </trkpt>
      <trkpt lat="43.55694" lon="1.15083">
        <ele>268.5</ele>
        <time>2017-06-04T07:57:13Z</time>
      </trkpt>
      <trkpt lat="43.55696" lon="1.15069">
        <ele>267.8</ele>
        <time>2017-06-04T07:57:18Z</time>
      </trkpt>
      <trkpt lat="43.55694" lon="1.15056">
        <ele>267</ele>
        <time>2017-06-04T07:57:23Z</time>
      </trkpt>
      <trkpt lat="43.5569" lon="1.15044">
        <ele>266.2</ele>
        <time>2017-06-04T07:57:28Z</time>
      </trkpt>
      <trkpt lat="43.55689" lon="1.15031">
        <ele>265.5</ele>
        <time>2017-06-04T07:57:32Z</time>
      </trkpt>
      <trkpt lat="43.55686" lon="1.15017">
        <ele>264.6</ele>
        <time>2017-06-04T07:57:37Z</time>
      </trkpt>
      <trkpt lat="43.55684" lon="1.15003">
        <ele>263.8</ele>
        <time>2017-06-04T07:57:41Z</time>
      </trkpt>
      <trkpt lat="43.55681" lon="1.14989">
        <ele>263</ele>
        <time>2017-06-04T07:57:46Z</time>
      </trkpt>
      <trkpt lat="43.55686" lon="1.14974">
        <ele>262.3</ele>
        <time>2017-06-04T07:57:51Z</time>
      </trkpt>
      <trkpt lat="43.55695" lon="1.1497">
        <ele>261.5</ele>
        <time>2017-06-04T07:57:55Z</time>
      </trkpt>
      <trkpt lat="43.55704" lon="1.14967">
        <ele>260.7</ele>
        <time>2017-06-04T07:57:59Z</time>
      </trkpt>
      <trkpt lat="43.55713" lon="1.14963">
        <ele>259.9</ele>
        <time>2017-06-04T07:58:03Z</time>
      </trkpt>
      <trkpt lat="43.55723" lon="1.14959">
        <ele>259</ele>
        <time>2017-06-04T07:58:07Z</time>
      </trkpt>
      <trkpt lat="43.55733" lon="1.14955">
        <ele>258</ele>
        <time>2017-06-04T07:58:12Z</time>
      </trkpt>
      <trkpt lat="43.55743" lon="1.14949">
        <ele>256.9</ele>
        <time>2017-06-04T07:58:17Z</time>
      </trkpt>
      <trkpt lat="43.55754" lon="1.14944">
        <ele>255.7</ele>
        <time>2017-06-04T07:58:22Z</time>
      </trkpt>
      <trkpt lat="43.55763" lon="1.14939">
        <ele>254.5</ele>
        <time>2017-06-04T07:58:26Z</time>
      </trkpt>
      <trkpt lat="43.55772" lon="1.14934">
        <ele>253.1</ele>
        <time>2017-06-04T07:58:30Z</time>
      </trkpt>
      <trkpt lat="43.55781" lon="1.1493">
        <ele>251.7</ele>
        <time>2017-06-04T07:58:34Z</time>
      </trkpt>
      <trkpt lat="43.55791" lon="1.14925">
        <ele>250.3</ele>
        <time>2017-06-04T07:58:39Z</time>
      </trkpt>
      <trkpt lat="43.55801" lon="1.14921">
        <ele>248.8</ele>
        <time>2017-06-04T07:58:44Z</time>
      </trkpt>
      <trkpt lat="43.55811" lon="1.14916">
        <ele>247.5</ele>
        <time>2017-06-04T07:58:49Z</time>
      </trkpt>
      <trkpt lat="43.5582" lon="1.14911">
        <ele>246.2</ele>
        <time>2017-06-04T07:58:53Z</time>
      </trkpt>
      <trkpt lat="43.55829" lon="1.14907">
        <ele>244.9</ele>
        <time>2017-06-04T07:58:57Z</time>
      </trkpt>
      <trkpt lat="43.55838" lon="1.14903">
        <ele>243.8</ele>
        <time>2017-06-04T07:59:01Z</time>
      </trkpt>
      <trkpt lat="43.55847" lon="1.14898">
        <ele>242.8</ele>
        <time>2017-06-04T07:59:05Z</time>
      </trkpt>
      <trkpt lat="43.55857" lon="1.14893">
        <ele>241.9</ele>
        <time>2017-06-04T07:59:10Z</time>
      </trkpt>
      <trkpt lat="43.55868" lon="1.14887">
        <ele>241.2</ele>
        <time>2017-06-04T07:59:15Z</time>
      </trkpt>
      <trkpt lat="43.55876" lon="1.14883">
        <ele>240.5</ele>
        <time>2017-06-04T07:59:19Z</time>
      </trkpt>
      <trkpt lat="43.55885" lon="1.14878">
        <ele>239.8</ele>
        <time>2017-06-04T07:59:23Z</time>
      </trkpt>
      <trkpt lat="43.55895" lon="1.14872">
        <ele>239.1</ele>
        <time>2017-06-04T07:59:28Z</time>
      </trkpt>
      <trkpt lat="43.55904" lon="1.14867">
        <ele>238.5</ele>
        <time>2017-06-04T07:59:33Z</time>
      </trkpt>
      <trkpt lat="43.55914" lon="1.14861">
        <ele>237.9</ele>
        <time>2017-06-04T07:59:38Z</time>
      </trkpt>
      <trkpt lat="43.55923" lon="1.14855">
        <ele>237.4</ele>
        <time>2017-06-04T07:59:42Z</time>
      </trkpt>
      <trkpt lat="43.55932" lon="1.1485">
        <ele>237</ele>
        <time>2017-06-04T07:59:47Z</time>
      </trkpt>
      <trkpt lat="43.55936" lon="1.14835">
        <ele>236.6</ele>
        <time>2017-06-04T07:59:52Z</time>
      </trkpt>
      <trkpt lat="43.55931" lon="1.14822">
        <ele>236.4</ele>
        <time>2017-06-04T07:59:56Z</time>
      </trkpt>
      <trkpt lat="43.55928" lon="1.14808">
        <ele>236.1</ele>
        <time>2017-06-04T08:00:01Z</time>
      </trkpt>
      <trkpt lat="43.55924" lon="1.14795">
        <ele>235.8</ele>
        <time>2017-06-04T08:00:06Z</time>
      </trkpt>
      <trkpt lat="43.55919" lon="1.14783">
        <ele>235.6</ele>
        <time>2017-06-04T08:00:10Z</time>
      </trkpt>
      <trkpt lat="43.55915" lon="1.1477">
        <ele>235.6</ele>
        <time>2017-06-04T08:00:14Z</time>
      </trkpt>
      <trkpt lat="43.55911" lon="1.14757">
        <ele>235.7</ele>
        <time>2017-06-04T08:00:18Z</time>
      </trkpt>
      <trkpt lat="43.55907" lon="1.14745">
        <ele>235.9</ele>
        <time>2017-06-04T08:00:22Z</time>
      </trkpt>
      <trkpt lat="43.55904" lon="1.14732">
        <ele>236.2</ele>
        <time>2017-06-04T08:00:26Z</time>
      </trkpt>
      <trkpt lat="43.55901" lon="1.1472">
        <ele>236.5</ele>
        <time>2017-06-04T08:00:30Z</time>
      </trkpt>
      <trkpt lat="43.55898" lon="1.14706">
        <ele>237</ele>
        <time>2017-06-04T08:00:35Z</time>
      </trkpt>
      <trkpt lat="43.55894" lon="1.14694">
        <ele>237.5</ele>
        <time>2017-06-04T08:00:40Z</time>
      </trkpt>
      <trkpt lat="43.5589" lon="1.14682">
        <ele>238.2</ele>
        <time>2017-06-04T08:00:45Z</time>
      </trkpt>
      <trkpt lat="43.55887" lon="1.14669">
        <ele>238.9</ele>
        <time>2017-06-04T08:00:50Z</time>
      </trkpt>
      <trkpt lat="43.55882" lon="1.14655">
        <ele>239.7</ele>
        <time>2017-06-04T08:00:55Z</time>
      </trkpt>
      <trkpt lat="43.55878" lon="1.14643">
        <ele>240.6</ele>
        <time>2017-06-04T08:01:00Z</time>
      </trkpt>
      <trkpt lat="43.55876" lon="1.1463">
        <ele>241.5</ele>
        <time>2017-06-04T08:01:05Z</time>
      </trkpt>
      <trkpt lat="43.55873" lon="1.14618">
        <ele>242.5</ele>
        <time>2017-06-04T08:01:11Z</time>
      </trkpt>
      <trkpt lat="43.55869" lon="1.14604">
        <ele>243.4</ele>
        <time>2017-06-04T08:01:18Z</time>
      </trkpt>
      <trkpt lat="43.55866" lon="1.1459">
        <ele>244</ele>
        <time>2017-06-04T08:01:23Z</time>
      </trkpt>
      <trkpt lat="43.55862" lon="1.14578">
        <ele>244.5</ele>
        <time>2017-06-04T08:01:28Z</time>
      </trkpt>
      <trkpt lat="43.55856" lon="1.14567">
        <ele>244.9</ele>
        <time>2017-06-04T08:01:33Z</time>
      </trkpt>
      <trkpt lat="43.5585" lon="1.14558">
        <ele>245.2</ele>
        <time>2017-06-04T08:01:39Z</time>
      </trkpt>
      <trkpt lat="43.55856" lon="1.14549">
        <ele>245.4</ele>
        <time>2017-06-04T08:01:50Z</time>
      </trkpt>
      <trkpt lat="43.55867" lon="1.14546">
        <ele>245.4</ele>
        <time>2017-06-04T08:02:03Z</time>
      </trkpt>
      <trkpt lat="43.55873" lon="1.14537">
        <ele>245.3</ele>
        <time>2017-06-04T08:02:10Z</time>
      </trkpt>
      <trkpt lat="43.55872" lon="1.14523">
        <ele>245.1</ele>
        <time>2017-06-04T08:02:16Z</time>
      </trkpt>
      <trkpt lat="43.55869" lon="1.14509">
        <ele>244.9</ele>
        <time>2017-06-04T08:02:22Z</time>
      </trkpt>
      <trkpt lat="43.55866" lon="1.14496">
        <ele>244.5</ele>
        <time>2017-06-04T08:02:28Z</time>
      </trkpt>
      <trkpt lat="43.55865" lon="1.14483">
        <ele>244.3</ele>
        <time>2017-06-04T08:02:33Z</time>
      </trkpt>
      <trkpt lat="43.55866" lon="1.14469">
        <ele>244.2</ele>
        <time>2017-06-04T08:02:38Z</time>
      </trkpt>
      <trkpt lat="43.55865" lon="1.14457">
        <ele>244.1</ele>
        <time>2017-06-04T08:02:43Z</time>
      </trkpt>
      <trkpt lat="43.55864" lon="1.14442">
        <ele>244</ele>
        <time>2017-06-04T08:02:49Z</time>
      </trkpt>
      <trkpt lat="43.55862" lon="1.14428">
        <ele>243.9</ele>
        <time>2017-06-04T08:02:54Z</time>
      </trkpt>
      <trkpt lat="43.55858" lon="1.14416">
        <ele>243.8</ele>
        <time>2017-06-04T08:02:58Z</time>
      </trkpt>
      <trkpt lat="43.55854" lon="1.14405">
        <ele>243.8</ele>
        <time>2017-06-04T08:03:04Z</time>
      </trkpt>
      <trkpt lat="43.55852" lon="1.14391">
        <ele>243.9</ele>
        <time>2017-06-04T08:03:12Z</time>
      </trkpt>
      <trkpt lat="43.55849" lon="1.14377">
        <ele>244</ele>
        <time>2017-06-04T08:03:17Z</time>
      </trkpt>
      <trkpt lat="43.55849" lon="1.14362">
        <ele>244</ele>
        <time>2017-06-04T08:03:23Z</time>
      </trkpt>
      <trkpt lat="43.55852" lon="1.14348">
        <ele>244</ele>
        <time>2017-06-04T08:03:29Z</time>
      </trkpt>
      <trkpt lat="43.55849" lon="1.14335">
        <ele>243.9</ele>
        <time>2017-06-04T08:03:34Z</time>
      </trkpt>
      <trkpt lat="43.55847" lon="1.14321">
        <ele>243.7</ele>
        <time>2017-06-04T08:03:39Z</time>
      </trkpt>
      <trkpt lat="43.55845" lon="1.14307">
        <ele>243.5</ele>
        <time>2017-06-04T08:03:44Z</time>
      </trkpt>
      <trkpt lat="43.55844" lon="1.14293">
        <ele>243.3</ele>
        <time>2017-06-04T08:03:49Z</time>
      </trkpt>
      <trkpt lat="43.55845" lon="1.14279">
        <ele>243</ele>
        <time>2017-06-04T08:03:55Z</time>
      </trkpt>
      <trkpt lat="43.55846" lon="1.14266">
        <ele>242.7</ele>
        <time>2017-06-04T08:04:00Z</time>
      </trkpt>
      <trkpt lat="43.55846" lon="1.14253">
        <ele>242.5</ele>
        <time>2017-06-04T08:04:05Z</time>
      </trkpt>
      <trkpt lat="43.55843" lon="1.14239">
        <ele>242.1</ele>
        <time>2017-06-04T08:04:10Z</time>
      </trkpt>
      <trkpt lat="43.55844" lon="1.14225">
        <ele>241.8</ele>
        <time>2017-06-04T08:04:15Z</time>
      </trkpt>
      <trkpt lat="43.55843" lon="1.14212">
        <ele>241.7</ele>
        <time>2017-06-04T08:04:20Z</time>
      </trkpt>
      <trkpt lat="43.55845" lon="1.14198">
        <ele>241.7</ele>
        <time>2017-06-04T08:04:26Z</time>
      </trkpt>
      <trkpt lat="43.55841" lon="1.14184">
        <ele>241.8</ele>
        <time>2017-06-04T08:04:35Z</time>
      </trkpt>
      <trkpt lat="43.55841" lon="1.14169">
        <ele>242</ele>
        <time>2017-06-04T08:04:40Z</time>
      </trkpt>
      <trkpt lat="43.55835" lon="1.14156">
        <ele>242.3</ele>
        <time>2017-06-04T08:04:45Z</time>
      </trkpt>
      <trkpt lat="43.55835" lon="1.14144">
        <ele>242.8</ele>
        <time>2017-06-04T08:04:51Z</time>
      </trkpt>
      <trkpt lat="43.55837" lon="1.14132">
        <ele>243.5</ele>
        <time>2017-06-04T08:04:57Z</time>
      </trkpt>
      <trkpt lat="43.55836" lon="1.14119">
        <ele>244.5</ele>
        <time>2017-06-04T08:05:07Z</time>
      </trkpt>
      <trkpt lat="43.55835" lon="1.14105">
        <ele>245.5</ele>
        <time>2017-06-04T08:05:13Z</time>
      </trkpt>
      <trkpt lat="43.55837" lon="1.14092">
        <ele>246.7</ele>
        <time>2017-06-04T08:05:18Z</time>
      </trkpt>
      <trkpt lat="43.55837" lon="1.14079">
        <ele>247.9</ele>
        <time>2017-06-04T08:05:23Z</time>
      </trkpt>
      <trkpt lat="43.55836" lon="1.14066">
        <ele>249</ele>
        <time>2017-06-04T08:05:28Z</time>
      </trkpt>
      <trkpt lat="43.55835" lon="1.14053">
        <ele>250.1</ele>
        <time>2017-06-04T08:05:35Z</time>
      </trkpt>
      <trkpt lat="43.55834" lon="1.14039">
        <ele>251.2</ele>
        <time>2017-06-04T08:05:41Z</time>
      </trkpt>
      <trkpt lat="43.55832" lon="1.14024">
        <ele>252.2</ele>
        <time>2017-06-04T08:05:47Z</time>
      </trkpt>
      <trkpt lat="43.55835" lon="1.14011">
        <ele>253.2</ele>
        <time>2017-06-04T08:05:54Z</time>
      </trkpt>
      <trkpt lat="43.55833" lon="1.13999">
        <ele>253.9</ele>
        <time>2017-06-04T08:05:59Z</time>
      </trkpt>
      <trkpt lat="43.55831" lon="1.13986">
        <ele>254.5</ele>
        <time>2017-06-04T08:06:02Z</time>
      </trkpt>
      <trkpt lat="43.55832" lon="1.13973">
        <ele>254.7</ele>
        <time>2017-06-04T08:06:06Z</time>
      </trkpt>
      <trkpt lat="43.55836" lon="1.13961">
        <ele>254.8</ele>
        <time>2017-06-04T08:06:11Z</time>
      </trkpt>
      <trkpt lat="43.55844" lon="1.1395">
        <ele>254.8</ele>
        <time>2017-06-04T08:06:16Z</time>
      </trkpt>
      <trkpt lat="43.55842" lon="1.13938">
        <ele>254.6</ele>
        <time>2017-06-04T08:06:25Z</time>
      </trkpt>
      <trkpt lat="43.55838" lon="1.13925">
        <ele>254.4</ele>
        <time>2017-06-04T08:06:32Z</time>
      </trkpt>
      <trkpt lat="43.55837" lon="1.1391">
        <ele>254.1</ele>
        <time>2017-06-04T08:06:37Z</time>
      </trkpt>
      <trkpt lat="43.55836" lon="1.13895">
        <ele>253.7</ele>
        <time>2017-06-04T08:06:44Z</time>
      </trkpt>
      <trkpt lat="43.55831" lon="1.13884">
        <ele>253.3</ele>
        <time>2017-06-04T08:06:48Z</time>
      </trkpt>
      <trkpt lat="43.55828" lon="1.1387">
        <ele>252.6</ele>
        <time>2017-06-04T08:06:53Z</time>
      </trkpt>
      <trkpt lat="43.55826" lon="1.13856">
        <ele>252.1</ele>
        <time>2017-06-04T08:06:58Z</time>
      </trkpt>
      <trkpt lat="43.55829" lon="1.13842">
        <ele>251.5</ele>
        <time>2017-06-04T08:07:03Z</time>
      </trkpt>
      <trkpt lat="43.55826" lon="1.13828">
        <ele>250.8</ele>
        <time>2017-06-04T08:07:08Z</time>
      </trkpt>
      <trkpt lat="43.55824" lon="1.13815">
        <ele>250.2</ele>
        <time>2017-06-04T08:07:14Z</time>
      </trkpt>
      <trkpt lat="43.55821" lon="1.13802">
        <ele>249.5</ele>
        <time>2017-06-04T08:07:21Z</time>
      </trkpt>
      <trkpt lat="43.55826" lon="1.13789">
        <ele>248.7</ele>
        <time>2017-06-04T08:07:26Z</time>
      </trkpt>
      <trkpt lat="43.55834" lon="1.13783">
        <ele>248</ele>
        <time>2017-06-04T08:07:30Z</time>
      </trkpt>
      <trkpt lat="43.55843" lon="1.13779">
        <ele>247.2</ele>
        <time>2017-06-04T08:07:36Z</time>
      </trkpt>
      <trkpt lat="43.55853" lon="1.13779">
        <ele>246.5</ele>
        <time>2017-06-04T08:07:41Z</time>
      </trkpt>
      <trkpt lat="43.55862" lon="1.13775">
        <ele>245.8</ele>
        <time>2017-06-04T08:07:48Z</time>
      </trkpt>
      <trkpt lat="43.55863" lon="1.13761">
        <ele>245.3</ele>
        <time>2017-06-04T08:07:54Z</time>
      </trkpt>
      <trkpt lat="43.55865" lon="1.13749">
        <ele>244.7</ele>
        <time>2017-06-04T08:07:59Z</time>
      </trkpt>
      <trkpt lat="43.55864" lon="1.13735">
        <ele>244.3</ele>
        <time>2017-06-04T08:08:05Z</time>
      </trkpt>
      <trkpt lat="43.55863" lon="1.13723">
        <ele>244</ele>
        <time>2017-06-04T08:08:10Z</time>
      </trkpt>
      <trkpt lat="43.55865" lon="1.13708">
        <ele>243.7</ele>
        <time>2017-06-04T08:08:15Z</time>
      </trkpt>
      <trkpt lat="43.55872" lon="1.13701">
        <ele>243.6</ele>
        <time>2017-06-04T08:08:20Z</time>
      </trkpt>
      <trkpt lat="43.5587" lon="1.13687">
        <ele>243.6</ele>
        <time>2017-06-04T08:08:26Z</time>
      </trkpt>
      <trkpt lat="43.55874" lon="1.13674">
        <ele>243.7</ele>
        <time>2017-06-04T08:08:31Z</time>
      </trkpt>
      <trkpt lat="43.55878" lon="1.13662">
        <ele>243.9</ele>
        <time>2017-06-04T08:08:36Z</time>
      </trkpt>
      <trkpt lat="43.55886" lon="1.13653">
        <ele>244.1</ele>
        <time>2017-06-04T08:08:41Z</time>
      </trkpt>
      <trkpt lat="43.55886" lon="1.1364">
        <ele>244.3</ele>
        <time>2017-06-04T08:08:46Z</time>
      </trkpt>
      <trkpt lat="43.55884" lon="1.13627">
        <ele>244.5</ele>
        <time>2017-06-04T08:08:51Z</time>
      </trkpt>
      <trkpt lat="43.55885" lon="1.13612">
        <ele>244.9</ele>
        <time>2017-06-04T08:08:56Z</time>
      </trkpt>
      <trkpt lat="43.55882" lon="1.13599">
        <ele>245.4</ele>
        <time>2017-06-04T08:09:01Z</time>
      </trkpt>
      <trkpt lat="43.55877" lon="1.13587">
        <ele>245.9</ele>
        <time>2017-06-04T08:09:07Z</time>
      </trkpt>
      <trkpt lat="43.55873" lon="1.13576">
        <ele>246.5</ele>
        <time>2017-06-04T08:09:11Z</time>
      </trkpt>
      <trkpt lat="43.55864" lon="1.13571">
        <ele>247.2</ele>
        <time>2017-06-04T08:09:16Z</time>
      </trkpt>
      <trkpt lat="43.55859" lon="1.13558">
        <ele>247.8</ele>
        <time>2017-06-04T08:09:22Z</time>
      </trkpt>
      <trkpt lat="43.55857" lon="1.13546">
        <ele>248.5</ele>
        <time>2017-06-04T08:09:26Z</time>
      </trkpt>
      <trkpt lat="43.55859" lon="1.13532">
        <ele>249.2</ele>
        <time>2017-06-04T08:09:30Z</time>
      </trkpt>
      <trkpt lat="43.55856" lon="1.13519">
        <ele>249.9</ele>
        <time>2017-06-04T08:09:37Z</time>
      </trkpt>
      <trkpt lat="43.55847" lon="1.13514">
        <ele>250.6</ele>
        <time>2017-06-04T08:09:42Z</time>
      </trkpt>
      <trkpt lat="43.55837" lon="1.13516">
        <ele>251.3</ele>
        <time>2017-06-04T08:09:48Z</time>
      </trkpt>
      <trkpt lat="43.55827" lon="1.13515">
        <ele>251.8</ele>
        <time>2017-06-04T08:09:55Z</time>
      </trkpt>
      <trkpt lat="43.55824" lon="1.13501">
        <ele>252.3</ele>
        <time>2017-06-04T08:10:00Z</time>
      </trkpt>
      <trkpt lat="43.55825" lon="1.13487">
        <ele>252.6</ele>
        <time>2017-06-04T08:10:05Z</time>
      </trkpt>
      <trkpt lat="43.55828" lon="1.13472">
        <ele>253</ele>
        <time>2017-06-04T08:10:10Z</time>
      </trkpt>
      <trkpt lat="43.55829" lon="1.13459">
        <ele>253.3</ele>
        <time>2017-06-04T08:10:15Z</time>
      </trkpt>
      <trkpt lat="43.55828" lon="1.13447">
        <ele>253.6</ele>
        <time>2017-06-04T08:10:19Z</time>
      </trkpt>
      <trkpt lat="43.55831" lon="1.13434">
        <ele>254</ele>
        <time>2017-06-04T08:10:27Z</time>
      </trkpt>
      <trkpt lat="43.55832" lon="1.13419">
        <ele>254.4</ele>
        <time>2017-06-04T08:10:32Z</time>
      </trkpt>
      <trkpt lat="43.55829" lon="1.13403">
        <ele>254.7</ele>
        <time>2017-06-04T08:10:37Z</time>
      </trkpt>
      <trkpt lat="43.55831" lon="1.1339">
        <ele>255.1</ele>
        <time>2017-06-04T08:10:41Z</time>
      </trkpt>
      <trkpt lat="43.55836" lon="1.13379">
        <ele>255.4</ele>
        <time>2017-06-04T08:10:47Z</time>
      </trkpt>
      <trkpt lat="43.55838" lon="1.13367">
        <ele>255.6</ele>
        <time>2017-06-04T08:10:52Z</time>
      </trkpt>
      <trkpt lat="43.55835" lon="1.13354">
        <ele>255.8</ele>
        <time>2017-06-04T08:10:56Z</time>
      </trkpt>
      <trkpt lat="43.55831" lon="1.13342">
        <ele>255.8</ele>
        <time>2017-06-04T08:11:02Z</time>
      </trkpt>
      <trkpt lat="43.55829" lon="1.13329">
        <ele>255.7</ele>
        <time>2017-06-04T08:11:09Z</time>
      </trkpt>
      <trkpt lat="43.55833" lon="1.13318">
        <ele>255.5</ele>
        <time>2017-06-04T08:11:13Z</time>
      </trkpt>
      <trkpt lat="43.55838" lon="1.13307">
        <ele>255</ele>
        <time>2017-06-04T08:11:19Z</time>
      </trkpt>
      <trkpt lat="43.55843" lon="1.13295">
        <ele>254.5</ele>
        <time>2017-06-04T08:11:30Z</time>
      </trkpt>
      <trkpt lat="43.55852" lon="1.13291">
        <ele>253.7</ele>
        <time>2017-06-04T08:11:36Z</time>
      </trkpt>
      <trkpt lat="43.55856" lon="1.13303">
        <ele>253</ele>
        <time>2017-06-04T08:12:09Z</time>
      </trkpt>
      <trkpt lat="43.55866" lon="1.13307">
        <ele>252.3</ele>
        <time>2017-06-04T08:12:17Z</time>
      </trkpt>
      <trkpt lat="43.55875" lon="1.1331">
        <ele>251.6</ele>
        <time>2017-06-04T08:12:24Z</time>
      </trkpt>
      <trkpt lat="43.55884" lon="1.13315">
        <ele>251.1</ele>
        <time>2017-06-04T08:12:30Z</time>
      </trkpt>
      <trkpt lat="43.55895" lon="1.13319">
        <ele>250.8</ele>
        <time>2017-06-04T08:12:37Z</time>
      </trkpt>
      <trkpt lat="43.55905" lon="1.1332">
        <ele>250.7</ele>
        <time>2017-06-04T08:12:44Z</time>
      </trkpt>
      <trkpt lat="43.55913" lon="1.13313">
        <ele>250.7</ele>
        <time>2017-06-04T08:12:50Z</time>
      </trkpt>
      <trkpt lat="43.55921" lon="1.13306">
        <ele>251.1</ele>
        <time>2017-06-04T08:12:55Z</time>
      </trkpt>
      <trkpt lat="43.5593" lon="1.13303">
        <ele>251.7</ele>
        <time>2017-06-04T08:13:03Z</time>
      </trkpt>
      <trkpt lat="43.5594" lon="1.13302">
        <ele>252.5</ele>
        <time>2017-06-04T08:13:10Z</time>
      </trkpt>
      <trkpt lat="43.5595" lon="1.13297">
        <ele>253.6</ele>
        <time>2017-06-04T08:13:16Z</time>
      </trkpt>
      <trkpt lat="43.5596" lon="1.13296">
        <ele>254.9</ele>
        <time>2017-06-04T08:13:22Z</time>
      </trkpt>
      <trkpt lat="43.5597" lon="1.13297">
        <ele>256.4</ele>
        <time>2017-06-04T08:13:34Z</time>
      </trkpt>
      <trkpt lat="43.55979" lon="1.13298">
        <ele>257.9</ele>
        <time>2017-06-04T08:13:40Z</time>
      </trkpt>
      <trkpt lat="43.55988" lon="1.13296">
        <ele>259.5</ele>
        <time>2017-06-04T08:13:52Z</time>
      </trkpt>
      <trkpt lat="43.55999" lon="1.13298">
        <ele>260.9</ele>
        <time>2017-06-04T08:14:00Z</time>
      </trkpt>
      <trkpt lat="43.56009" lon="1.13295">
        <ele>262.3</ele>
        <time>2017-06-04T08:14:05Z</time>
      </trkpt>
      <trkpt lat="43.5602" lon="1.13296">
        <ele>263.6</ele>
        <time>2017-06-04T08:14:11Z</time>
      </trkpt>
      <trkpt lat="43.5603" lon="1.13297">
        <ele>264.9</ele>
        <time>2017-06-04T08:14:19Z</time>
      </trkpt>
      <trkpt lat="43.5604" lon="1.13296">
        <ele>266.1</ele>
        <time>2017-06-04T08:14:28Z</time>
      </trkpt>
      <trkpt lat="43.56049" lon="1.13293">
        <ele>267.3</ele>
        <time>2017-06-04T08:14:40Z</time>
      </trkpt>
      <trkpt lat="43.56058" lon="1.13296">
        <ele>268.4</ele>
        <time>2017-06-04T08:14:52Z</time>
      </trkpt>
      <trkpt lat="43.56067" lon="1.13297">
        <ele>269.4</ele>
        <time>2017-06-04T08:15:04Z</time>
      </trkpt>
      <trkpt lat="43.56076" lon="1.13295">
        <ele>270.4</ele>
        <time>2017-06-04T08:15:13Z</time>
      </trkpt>
      <trkpt lat="43.56085" lon="1.13293">
        <ele>271.5</ele>
        <time>2017-06-04T08:15:23Z</time>
      </trkpt>
      <trkpt lat="43.56094" lon="1.1329">
        <ele>272.6</ele>
        <time>2017-06-04T08:15:30Z</time>
      </trkpt>
      <trkpt lat="43.56103" lon="1.13291">
        <ele>273.9</ele>
        <time>2017-06-04T08:15:39Z</time>
      </trkpt>
      <trkpt lat="43.56113" lon="1.13293">
        <ele>275.4</ele>
        <time>2017-06-04T08:15:49Z</time>
      </trkpt>
      <trkpt lat="43.56122" lon="1.13293">
        <ele>276.8</ele>
        <time>2017-06-04T08:15:56Z</time>
      </trkpt>
      <trkpt lat="43.56131" lon="1.13288">
        <ele>278.3</ele>
        <time>2017-06-04T08:16:03Z</time>
      </trkpt>
      <trkpt lat="43.56141" lon="1.13284">
        <ele>279.7</ele>
        <time>2017-06-04T08:16:23Z</time>
      </trkpt>
      <trkpt lat="43.56151" lon="1.13285">
        <ele>281.2</ele>
        <time>2017-06-04T08:16:28Z</time>
      </trkpt>
      <trkpt lat="43.5616" lon="1.13281">
        <ele>282.5</ele>
        <time>2017-06-04T08:16:35Z</time>
      </trkpt>
      <trkpt lat="43.5617" lon="1.13283">
        <ele>283.5</ele>
        <time>2017-06-04T08:16:39Z</time>
      </trkpt>
      <trkpt lat="43.5618" lon="1.13285">
        <ele>284.4</ele>
        <time>2017-06-04T08:16:43Z</time>
      </trkpt>
      <trkpt lat="43.5619" lon="1.13284">
        <ele>285.1</ele>
        <time>2017-06-04T08:16:48Z</time>
      </trkpt>
      <trkpt lat="43.562" lon="1.13281">
        <ele>285.7</ele>
        <time>2017-06-04T08:16:52Z</time>
      </trkpt>
      <trkpt lat="43.56191" lon="1.13283">
        <ele>286.3</ele>
        <time>2017-06-04T08:17:06Z</time>
      </trkpt>
      <trkpt lat="43.5618" lon="1.13286">
        <ele>286.6</ele>
        <time>2017-06-04T08:17:11Z</time>
      </trkpt>
      <trkpt lat="43.5617" lon="1.13287">
        <ele>286.9</ele>
        <time>2017-06-04T08:17:16Z</time>
      </trkpt>
      <trkpt lat="43.56179" lon="1.1328">
        <ele>287.1</ele>
        <time>2017-06-04T08:17:23Z</time>
      </trkpt>
      <trkpt lat="43.56189" lon="1.13282">
        <ele>287.2</ele>
        <time>2017-06-04T08:17:27Z</time>
      </trkpt>
      <trkpt lat="43.56199" lon="1.13285">
        <ele>287.2</ele>
        <time>2017-06-04T08:17:30Z</time>
      </trkpt>
      <trkpt lat="43.56207" lon="1.13288">
        <ele>287.2</ele>
        <time>2017-06-04T08:17:34Z</time>
      </trkpt>
      <trkpt lat="43.56217" lon="1.13291">
        <ele>287.1</ele>
        <time>2017-06-04T08:17:38Z</time>
      </trkpt>
      <trkpt lat="43.56227" lon="1.13288">
        <ele>286.9</ele>
        <time>2017-06-04T08:17:48Z</time>
      </trkpt>
      <trkpt lat="43.56236" lon="1.13285">
        <ele>286.5</ele>
        <time>2017-06-04T08:17:53Z</time>
      </trkpt>
      <trkpt lat="43.56245" lon="1.13286">
        <ele>285.7</ele>
        <time>2017-06-04T08:18:08Z</time>
      </trkpt>
      <trkpt lat="43.56254" lon="1.1329">
        <ele>284.8</ele>
        <time>2017-06-04T08:18:12Z</time>
      </trkpt>
      <trkpt lat="43.56265" lon="1.13294">
        <ele>283.7</ele>
        <time>2017-06-04T08:18:17Z</time>
      </trkpt>
      <trkpt lat="43.56275" lon="1.13298">
        <ele>282.5</ele>
        <time>2017-06-04T08:18:22Z</time>
      </trkpt>
      <trkpt lat="43.56285" lon="1.13302">
        <ele>281.3</ele>
        <time>2017-06-04T08:18:27Z</time>
      </trkpt>
      <trkpt lat="43.56295" lon="1.13307">
        <ele>279.9</ele>
        <time>2017-06-04T08:18:32Z</time>
      </trkpt>
      <trkpt lat="43.56304" lon="1.13311">
        <ele>278.4</ele>
        <time>2017-06-04T08:18:37Z</time>
      </trkpt>
      <trkpt lat="43.56313" lon="1.13313">
        <ele>276.7</ele>
        <time>2017-06-04T08:18:43Z</time>
      </trkpt>
      <trkpt lat="43.56323" lon="1.13316">
        <ele>275.1</ele>
        <time>2017-06-04T08:18:48Z</time>
      </trkpt>
      <trkpt lat="43.56333" lon="1.13323">
        <ele>273.5</ele>
        <time>2017-06-04T08:18:52Z</time>
      </trkpt>
      <trkpt lat="43.56344" lon="1.13328">
        <ele>271.8</ele>
        <time>2017-06-04T08:18:56Z</time>
      </trkpt>
      <trkpt lat="43.56354" lon="1.13331">
        <ele>270.3</ele>
        <time>2017-06-04T08:19:00Z</time>
      </trkpt>
      <trkpt lat="43.56363" lon="1.13334">
        <ele>268.6</ele>
        <time>2017-06-04T08:19:04Z</time>
      </trkpt>
      <trkpt lat="43.56373" lon="1.13341">
        <ele>267.2</ele>
        <time>2017-06-04T08:19:08Z</time>
      </trkpt>
      <trkpt lat="43.56381" lon="1.13345">
        <ele>265.8</ele>
        <time>2017-06-04T08:19:12Z</time>
      </trkpt>
      <trkpt lat="43.56391" lon="1.13349">
        <ele>264.5</ele>
        <time>2017-06-04T08:19:16Z</time>
      </trkpt>
      <trkpt lat="43.56402" lon="1.13351">
        <ele>263.2</ele>
        <time>2017-06-04T08:19:21Z</time>
      </trkpt>
      <trkpt lat="43.56412" lon="1.13352">
        <ele>261.9</ele>
        <time>2017-06-04T08:19:25Z</time>
      </trkpt>
      <trkpt lat="43.56422" lon="1.13358">
        <ele>260.7</ele>
        <time>2017-06-04T08:19:29Z</time>
      </trkpt>
      <trkpt lat="43.56433" lon="1.13362">
        <ele>259.6</ele>
        <time>2017-06-04T08:19:33Z</time>
      </trkpt>
      <trkpt lat="43.56443" lon="1.13366">
        <ele>258.6</ele>
        <time>2017-06-04T08:19:37Z</time>
      </trkpt>
      <trkpt lat="43.56452" lon="1.13369">
        <ele>257.6</ele>
        <time>2017-06-04T08:19:41Z</time>
      </trkpt>
      <trkpt lat="43.56462" lon="1.13374">
        <ele>256.7</ele>
        <time>2017-06-04T08:19:45Z</time>
      </trkpt>
      <trkpt lat="43.56472" lon="1.13377">
        <ele>255.8</ele>
        <time>2017-06-04T08:19:49Z</time>
      </trkpt>
      <trkpt lat="43.56483" lon="1.13379">
        <ele>254.8</ele>
        <time>2017-06-04T08:19:53Z</time>
      </trkpt>
      <trkpt lat="43.56493" lon="1.13381">
        <ele>253.7</ele>
        <time>2017-06-04T08:19:57Z</time>
      </trkpt>
      <trkpt lat="43.56503" lon="1.13384">
        <ele>252.6</ele>
        <time>2017-06-04T08:20:01Z</time>
      </trkpt>
      <trkpt lat="43.56513" lon="1.13387">
        <ele>251.5</ele>
        <time>2017-06-04T08:20:05Z</time>
      </trkpt>
      <trkpt lat="43.56522" lon="1.13392">
        <ele>250.5</ele>
        <time>2017-06-04T08:20:09Z</time>
      </trkpt>
      <trkpt lat="43.56532" lon="1.13397">
        <ele>249.6</ele>
        <time>2017-06-04T08:20:13Z</time>
      </trkpt>
      <trkpt lat="43.56542" lon="1.13399">
        <ele>248.7</ele>
        <time>2017-06-04T08:20:17Z</time>
      </trkpt>
      <trkpt lat="43.56552" lon="1.13401">
        <ele>247.8</ele>
        <time>2017-06-04T08:20:21Z</time>
      </trkpt>
      <trkpt lat="43.56561" lon="1.13405">
        <ele>247</ele>
        <time>2017-06-04T08:20:25Z</time>
      </trkpt>
      <trkpt lat="43.56572" lon="1.13409">
        <ele>246.1</ele>
        <time>2017-06-04T08:20:30Z</time>
      </trkpt>
      <trkpt lat="43.56581" lon="1.13412">
        <ele>245.3</ele>
        <time>2017-06-04T08:20:34Z</time>
      </trkpt>
      <trkpt lat="43.56591" lon="1.13417">
        <ele>244.5</ele>
        <time>2017-06-04T08:20:39Z</time>
      </trkpt>
      <trkpt lat="43.566" lon="1.13423">
        <ele>243.8</ele>
        <time>2017-06-04T08:20:44Z</time>
      </trkpt>
      <trkpt lat="43.56609" lon="1.13426">
        <ele>243.1</ele>
        <time>2017-06-04T08:20:48Z</time>
      </trkpt>
      <trkpt lat="43.56619" lon="1.13426">
        <ele>242.4</ele>
        <time>2017-06-04T08:20:52Z</time>
      </trkpt>
      <trkpt lat="43.56629" lon="1.13425">
        <ele>241.6</ele>
        <time>2017-06-04T08:20:56Z</time>
      </trkpt>
      <trkpt lat="43.56639" lon="1.1343">
        <ele>240.9</ele>
        <time>2017-06-04T08:21:01Z</time>
      </trkpt>
      <trkpt lat="43.56648" lon="1.13435">
        <ele>240.3</ele>
        <time>2017-06-04T08:21:05Z</time>
      </trkpt>
      <trkpt lat="43.56658" lon="1.1344">
        <ele>239.6</ele>
        <time>2017-06-04T08:21:10Z</time>
      </trkpt>
      <trkpt lat="43.56668" lon="1.13444">
        <ele>239</ele>
        <time>2017-06-04T08:21:15Z</time>
      </trkpt>
      <trkpt lat="43.56677" lon="1.13448">
        <ele>238.4</ele>
        <time>2017-06-04T08:21:20Z</time>
      </trkpt>
      <trkpt lat="43.56687" lon="1.13449">
        <ele>237.8</ele>
        <time>2017-06-04T08:21:25Z</time>
      </trkpt>
      <trkpt lat="43.56698" lon="1.13452">
        <ele>237.2</ele>
        <time>2017-06-04T08:21:29Z</time>
      </trkpt>
      <trkpt lat="43.56707" lon="1.13457">
        <ele>236.7</ele>
        <time>2017-06-04T08:21:45Z</time>
      </trkpt>
      <trkpt lat="43.56716" lon="1.13462">
        <ele>236.4</ele>
        <time>2017-06-04T08:21:48Z</time>
      </trkpt>
      <trkpt lat="43.56725" lon="1.13465">
        <ele>236.1</ele>
        <time>2017-06-04T08:21:51Z</time>
      </trkpt>
      <trkpt lat="43.56736" lon="1.13468">
        <ele>235.9</ele>
        <time>2017-06-04T08:21:55Z</time>
      </trkpt>
      <trkpt lat="43.56745" lon="1.13471">
        <ele>235.7</ele>
        <time>2017-06-04T08:21:59Z</time>
      </trkpt>
      <trkpt lat="43.56755" lon="1.13478">
        <ele>235.5</ele>
        <time>2017-06-04T08:22:07Z</time>
      </trkpt>
      <trkpt lat="43.56764" lon="1.13484">
        <ele>235.5</ele>
        <time>2017-06-04T08:22:11Z</time>
      </trkpt>
      <trkpt lat="43.56775" lon="1.13487">
        <ele>235.5</ele>
        <time>2017-06-04T08:22:15Z</time>
      </trkpt>
      <trkpt lat="43.56785" lon="1.13489">
        <ele>235.5</ele>
        <time>2017-06-04T08:22:19Z</time>
      </trkpt>
      <trkpt lat="43.56795" lon="1.13488">
        <ele>235.6</ele>
        <time>2017-06-04T08:22:23Z</time>
      </trkpt>
      <trkpt lat="43.56805" lon="1.13494">
        <ele>235.8</ele>
        <time>2017-06-04T08:22:27Z</time>
      </trkpt>
      <trkpt lat="43.56815" lon="1.13501">
        <ele>235.9</ele>
        <time>2017-06-04T08:22:31Z</time>
      </trkpt>
      <trkpt lat="43.56825" lon="1.13504">
        <ele>236</ele>
        <time>2017-06-04T08:22:35Z</time>
      </trkpt>
      <trkpt lat="43.56835" lon="1.13508">
        <ele>236.1</ele>
        <time>2017-06-04T08:22:39Z</time>
      </trkpt>
      <trkpt lat="43.56845" lon="1.1351">
        <ele>236.2</ele>
        <time>2017-06-04T08:22:43Z</time>
      </trkpt>
      <trkpt lat="43.56855" lon="1.13511">
        <ele>236.4</ele>
        <time>2017-06-04T08:22:47Z</time>
      </trkpt>
      <trkpt lat="43.56865" lon="1.13511">
        <ele>236.6</ele>
        <time>2017-06-04T08:22:51Z</time>
      </trkpt>
      <trkpt lat="43.56874" lon="1.13514">
        <ele>236.9</ele>
        <time>2017-06-04T08:22:55Z</time>
      </trkpt>
      <trkpt lat="43.56883" lon="1.13518">
        <ele>237.3</ele>
        <time>2017-06-04T08:22:59Z</time>
      </trkpt>
      <trkpt lat="43.56892" lon="1.1352">
        <ele>237.7</ele>
        <time>2017-06-04T08:23:03Z</time>
      </trkpt>
      <trkpt lat="43.569" lon="1.13523">
        <ele>238.2</ele>
        <time>2017-06-04T08:23:07Z</time>
      </trkpt>
      <trkpt lat="43.5691" lon="1.13528">
        <ele>238.7</ele>
        <time>2017-06-04T08:23:12Z</time>
      </trkpt>
      <trkpt lat="43.56921" lon="1.13533">
        <ele>239.3</ele>
        <time>2017-06-04T08:23:17Z</time>
      </trkpt>
      <trkpt lat="43.56931" lon="1.13538">
        <ele>239.9</ele>
        <time>2017-06-04T08:23:21Z</time>
      </trkpt>
      <trkpt lat="43.56941" lon="1.13543">
        <ele>240.5</ele>
        <time>2017-06-04T08:23:25Z</time>
      </trkpt>
      <trkpt lat="43.56951" lon="1.13545">
        <ele>241.3</ele>
        <time>2017-06-04T08:23:29Z</time>
      </trkpt>
      <trkpt lat="43.5696" lon="1.13548">
        <ele>242</ele>
        <time>2017-06-04T08:23:33Z</time>
      </trkpt>
      <trkpt lat="43.56969" lon="1.13552">
        <ele>242.7</ele>
        <time>2017-06-04T08:23:37Z</time>
      </trkpt>
      <trkpt lat="43.5698" lon="1.13557">
        <ele>243.5</ele>
        <time>2017-06-04T08:23:42Z</time>
      </trkpt>
      <trkpt lat="43.5699" lon="1.13559">
        <ele>244.4</ele>
        <time>2017-06-04T08:23:46Z</time>
      </trkpt>
      <trkpt lat="43.57" lon="1.13562">
        <ele>245.2</ele>
        <time>2017-06-04T08:23:50Z</time>
      </trkpt>
      <trkpt lat="43.57009" lon="1.13565">
        <ele>246.1</ele>
        <time>2017-06-04T08:23:54Z</time>
      </trkpt>
      <trkpt lat="43.57017" lon="1.13568">
        <ele>247</ele>
        <time>2017-06-04T08:23:58Z</time>
      </trkpt>
      <trkpt lat="43.57027" lon="1.13572">
        <ele>247.9</ele>
        <time>2017-06-04T08:24:02Z</time>
      </trkpt>
      <trkpt lat="43.57036" lon="1.13576">
        <ele>248.7</ele>
        <time>2017-06-04T08:24:06Z</time>
      </trkpt>
      <trkpt lat="43.57046" lon="1.13582">
        <ele>249.5</ele>
        <time>2017-06-04T08:24:10Z</time>
      </trkpt>
      <trkpt lat="43.57056" lon="1.13587">
        <ele>250</ele>
        <time>2017-06-04T08:24:14Z</time>
      </trkpt>
      <trkpt lat="43.57065" lon="1.1359">
        <ele>250.4</ele>
        <time>2017-06-04T08:24:18Z</time>
      </trkpt>
      <trkpt lat="43.57075" lon="1.13595">
        <ele>250.9</ele>
        <time>2017-06-04T08:24:23Z</time>
      </trkpt>
      <trkpt lat="43.57084" lon="1.136">
        <ele>251.3</ele>
        <time>2017-06-04T08:24:27Z</time>
      </trkpt>
      <trkpt lat="43.5709" lon="1.13605">
        <ele>251.7</ele>
        <time>2017-06-04T08:24:45Z</time>
      </trkpt>
      <trkpt lat="43.57087" lon="1.13605">
        <ele>252.2</ele>
        <time>2017-06-04T08:25:52Z</time>
      </trkpt>
      <trkpt lat="43.57099" lon="1.13615">
        <ele>251.9</ele>
        <time>2017-06-04T08:26:02Z</time>
      </trkpt>
      <trkpt lat="43.57108" lon="1.13619">
        <ele>251.5</ele>
        <time>2017-06-04T08:26:06Z</time>
      </trkpt>
      <trkpt lat="43.57116" lon="1.13625">
        <ele>251.2</ele>
        <time>2017-06-04T08:26:10Z</time>
      </trkpt>
      <trkpt lat="43.57126" lon="1.13628">
        <ele>251.1</ele>
        <time>2017-06-04T08:26:14Z</time>
      </trkpt>
      <trkpt lat="43.57136" lon="1.13631">
        <ele>251.1</ele>
        <time>2017-06-04T08:26:18Z</time>
      </trkpt>
      <trkpt lat="43.57146" lon="1.13634">
        <ele>251</ele>
        <time>2017-06-04T08:26:22Z</time>
      </trkpt>
      <trkpt lat="43.57156" lon="1.13639">
        <ele>251</ele>
        <time>2017-06-04T08:26:27Z</time>
      </trkpt>
      <trkpt lat="43.57164" lon="1.13649">
        <ele>251.1</ele>
        <time>2017-06-04T08:26:32Z</time>
      </trkpt>
      <trkpt lat="43.57169" lon="1.13662">
        <ele>251.4</ele>
        <time>2017-06-04T08:26:36Z</time>
      </trkpt>
      <trkpt lat="43.57177" lon="1.13669">
        <ele>251.8</ele>
        <time>2017-06-04T08:26:40Z</time>
      </trkpt>
      <trkpt lat="43.57185" lon="1.13678">
        <ele>252.4</ele>
        <time>2017-06-04T08:26:45Z</time>
      </trkpt>
      <trkpt lat="43.57193" lon="1.13686">
        <ele>253.1</ele>
        <time>2017-06-04T08:26:49Z</time>
      </trkpt>
      <trkpt lat="43.57201" lon="1.13694">
        <ele>254</ele>
        <time>2017-06-04T08:26:55Z</time>
      </trkpt>
      <trkpt lat="43.57209" lon="1.13705">
        <ele>255</ele>
        <time>2017-06-04T08:27:00Z</time>
      </trkpt>
      <trkpt lat="43.57217" lon="1.13711">
        <ele>256.1</ele>
        <time>2017-06-04T08:27:04Z</time>
      </trkpt>
      <trkpt lat="43.57224" lon="1.13718">
        <ele>257.3</ele>
        <time>2017-06-04T08:27:10Z</time>
      </trkpt>
      <trkpt lat="43.57229" lon="1.1373">
        <ele>258.5</ele>
        <time>2017-06-04T08:27:14Z</time>
      </trkpt>
      <trkpt lat="43.57236" lon="1.13739">
        <ele>259.6</ele>
        <time>2017-06-04T08:27:18Z</time>
      </trkpt>
      <trkpt lat="43.57244" lon="1.13746">
        <ele>260.8</ele>
        <time>2017-06-04T08:27:22Z</time>
      </trkpt>
      <trkpt lat="43.57249" lon="1.13756">
        <ele>262.1</ele>
        <time>2017-06-04T08:27:26Z</time>
      </trkpt>
      <trkpt lat="43.57255" lon="1.13766">
        <ele>263.4</ele>
        <time>2017-06-04T08:27:31Z</time>
      </trkpt>
      <trkpt lat="43.57263" lon="1.13776">
        <ele>264.5</ele>
        <time>2017-06-04T08:27:36Z</time>
      </trkpt>
      <trkpt lat="43.57272" lon="1.13784">
        <ele>265.7</ele>
        <time>2017-06-04T08:27:41Z</time>
      </trkpt>
      <trkpt lat="43.5728" lon="1.1379">
        <ele>266.9</ele>
        <time>2017-06-04T08:27:47Z</time>
      </trkpt>
      <trkpt lat="43.57284" lon="1.13804">
        <ele>268.2</ele>
        <time>2017-06-04T08:27:55Z</time>
      </trkpt>
      <trkpt lat="43.5729" lon="1.13814">
        <ele>269.4</ele>
        <time>2017-06-04T08:27:59Z</time>
      </trkpt>
      <trkpt lat="43.57299" lon="1.13822">
        <ele>270.4</ele>
        <time>2017-06-04T08:28:03Z</time>
      </trkpt>
      <trkpt lat="43.57307" lon="1.13831">
        <ele>270.9</ele>
        <time>2017-06-04T08:28:06Z</time>
      </trkpt>
      <trkpt lat="43.57314" lon="1.13843">
        <ele>271.4</ele>
        <time>2017-06-04T08:28:10Z</time>
      </trkpt>
      <trkpt lat="43.5732" lon="1.13853">
        <ele>272</ele>
        <time>2017-06-04T08:28:15Z</time>
      </trkpt>
      <trkpt lat="43.57325" lon="1.13864">
        <ele>272.4</ele>
        <time>2017-06-04T08:28:23Z</time>
      </trkpt>
      <trkpt lat="43.57326" lon="1.13866">
        <ele>272.8</ele>
        <time>2017-06-04T08:28:24Z</time>
      </trkpt>
      <trkpt lat="43.57337" lon="1.13875">
        <ele>276.5</ele>
        <time>2017-06-04T08:36:13Z</time>
      </trkpt>
      <trkpt lat="43.57337" lon="1.13876">
        <ele>276.6</ele>
        <time>2017-06-04T08:36:14Z</time>
      </trkpt>
      <trkpt lat="43.57343" lon="1.13887">
        <ele>276.6</ele>
        <time>2017-06-04T08:36:21Z</time>
      </trkpt>
      <trkpt lat="43.5735" lon="1.13897">
        <ele>276.7</ele>
        <time>2017-06-04T08:36:26Z</time>
      </trkpt>
      <trkpt lat="43.57357" lon="1.13909">
        <ele>276.7</ele>
        <time>2017-06-04T08:36:33Z</time>
      </trkpt>
      <trkpt lat="43.57366" lon="1.1391">
        <ele>276.6</ele>
        <time>2017-06-04T08:36:37Z</time>
      </trkpt>
      <trkpt lat="43.57375" lon="1.13901">
        <ele>276.7</ele>
        <time>2017-06-04T08:36:42Z</time>
      </trkpt>
      <trkpt lat="43.57383" lon="1.13891">
        <ele>276.8</ele>
        <time>2017-06-04T08:36:47Z</time>
      </trkpt>
      <trkpt lat="43.57388" lon="1.1388">
        <ele>277</ele>
        <time>2017-06-04T08:36:52Z</time>
      </trkpt>
      <trkpt lat="43.57394" lon="1.1387">
        <ele>277</ele>
        <time>2017-06-04T08:36:57Z</time>
      </trkpt>
      <trkpt lat="43.57401" lon="1.13861">
        <ele>276.9</ele>
        <time>2017-06-04T08:37:01Z</time>
      </trkpt>
      <trkpt lat="43.57408" lon="1.13853">
        <ele>276.7</ele>
        <time>2017-06-04T08:37:10Z</time>
      </trkpt>
      <trkpt lat="43.57408" lon="1.13867">
        <ele>276.5</ele>
        <time>2017-06-04T08:37:19Z</time>
      </trkpt>
      <trkpt lat="43.57415" lon="1.13878">
        <ele>276.1</ele>
        <time>2017-06-04T08:37:31Z</time>
      </trkpt>
      <trkpt lat="43.57424" lon="1.13884">
        <ele>275.6</ele>
        <time>2017-06-04T08:37:37Z</time>
      </trkpt>
      <trkpt lat="43.57432" lon="1.13891">
        <ele>275.1</ele>
        <time>2017-06-04T08:37:45Z</time>
      </trkpt>
      <trkpt lat="43.5744" lon="1.13897">
        <ele>274.6</ele>
        <time>2017-06-04T08:37:50Z</time>
      </trkpt>
      <trkpt lat="43.57448" lon="1.13903">
        <ele>274.2</ele>
        <time>2017-06-04T08:37:56Z</time>
      </trkpt>
      <trkpt lat="43.57458" lon="1.13908">
        <ele>273.7</ele>
        <time>2017-06-04T08:38:01Z</time>
      </trkpt>
      <trkpt lat="43.57466" lon="1.13914">
        <ele>273.3</ele>
        <time>2017-06-04T08:38:05Z</time>
      </trkpt>
      <trkpt lat="43.57474" lon="1.13921">
        <ele>272.9</ele>
        <time>2017-06-04T08:38:09Z</time>
      </trkpt>
      <trkpt lat="43.57481" lon="1.13928">
        <ele>272.6</ele>
        <time>2017-06-04T08:38:14Z</time>
      </trkpt>
      <trkpt lat="43.57491" lon="1.1393">
        <ele>272.5</ele>
        <time>2017-06-04T08:38:20Z</time>
      </trkpt>
      <trkpt lat="43.57499" lon="1.13938">
        <ele>272.5</ele>
        <time>2017-06-04T08:38:25Z</time>
      </trkpt>
      <trkpt lat="43.57508" lon="1.13942">
        <ele>272.5</ele>
        <time>2017-06-04T08:38:32Z</time>
      </trkpt>
      <trkpt lat="43.57513" lon="1.13953">
        <ele>272.6</ele>
        <time>2017-06-04T08:38:37Z</time>
      </trkpt>
      <trkpt lat="43.57521" lon="1.13963">
        <ele>272.8</ele>
        <time>2017-06-04T08:38:42Z</time>
      </trkpt>
      <trkpt lat="43.57527" lon="1.13972">
        <ele>273.1</ele>
        <time>2017-06-04T08:38:47Z</time>
      </trkpt>
      <trkpt lat="43.57535" lon="1.13981">
        <ele>273.3</ele>
        <time>2017-06-04T08:38:52Z</time>
      </trkpt>
      <trkpt lat="43.57543" lon="1.13989">
        <ele>273.5</ele>
        <time>2017-06-04T08:38:57Z</time>
      </trkpt>
      <trkpt lat="43.57552" lon="1.13996">
        <ele>273.8</ele>
        <time>2017-06-04T08:39:03Z</time>
      </trkpt>
      <trkpt lat="43.57562" lon="1.13999">
        <ele>274.3</ele>
        <time>2017-06-04T08:39:08Z</time>
      </trkpt>
      <trkpt lat="43.57572" lon="1.14002">
        <ele>274.8</ele>
        <time>2017-06-04T08:39:18Z</time>
      </trkpt>
      <trkpt lat="43.57582" lon="1.14007">
        <ele>275.5</ele>
        <time>2017-06-04T08:39:24Z</time>
      </trkpt>
      <trkpt lat="43.5759" lon="1.14014">
        <ele>276.5</ele>
        <time>2017-06-04T08:39:30Z</time>
      </trkpt>
      <trkpt lat="43.576" lon="1.14017">
        <ele>277.6</ele>
        <time>2017-06-04T08:39:35Z</time>
      </trkpt>
      <trkpt lat="43.57609" lon="1.14023">
        <ele>279</ele>
        <time>2017-06-04T08:39:41Z</time>
      </trkpt>
      <trkpt lat="43.57615" lon="1.14033">
        <ele>280.5</ele>
        <time>2017-06-04T08:39:47Z</time>
      </trkpt>
      <trkpt lat="43.57624" lon="1.14036">
        <ele>282.2</ele>
        <time>2017-06-04T08:39:53Z</time>
      </trkpt>
      <trkpt lat="43.57634" lon="1.14042">
        <ele>284</ele>
        <time>2017-06-04T08:39:58Z</time>
      </trkpt>
      <trkpt lat="43.57641" lon="1.14048">
        <ele>285.8</ele>
        <time>2017-06-04T08:40:06Z</time>
      </trkpt>
      <trkpt lat="43.5765" lon="1.14056">
        <ele>287.5</ele>
        <time>2017-06-04T08:40:12Z</time>
      </trkpt>
      <trkpt lat="43.57658" lon="1.1406">
        <ele>289.1</ele>
        <time>2017-06-04T08:40:17Z</time>
      </trkpt>
      <trkpt lat="43.57666" lon="1.14065">
        <ele>290.5</ele>
        <time>2017-06-04T08:40:23Z</time>
      </trkpt>
      <trkpt lat="43.57676" lon="1.1407">
        <ele>291.7</ele>
        <time>2017-06-04T08:40:29Z</time>
      </trkpt>
      <trkpt lat="43.57681" lon="1.14081">
        <ele>292.6</ele>
        <time>2017-06-04T08:41:12Z</time>
      </trkpt>
      <trkpt lat="43.57673" lon="1.1409">
        <ele>293.2</ele>
        <time>2017-06-04T08:41:33Z</time>
      </trkpt>
      <trkpt lat="43.57668" lon="1.141">
        <ele>293.4</ele>
        <time>2017-06-04T08:41:38Z</time>
      </trkpt>
      <trkpt lat="43.57663" lon="1.14111">
        <ele>293.2</ele>
        <time>2017-06-04T08:41:42Z</time>
      </trkpt>
      <trkpt lat="43.57659" lon="1.14123">
        <ele>292.6</ele>
        <time>2017-06-04T08:41:46Z</time>
      </trkpt>
      <trkpt lat="43.57654" lon="1.14134">
        <ele>291.7</ele>
        <time>2017-06-04T08:41:50Z</time>
      </trkpt>
      <trkpt lat="43.57649" lon="1.14145">
        <ele>290.6</ele>
        <time>2017-06-04T08:41:54Z</time>
      </trkpt>
      <trkpt lat="43.57644" lon="1.14156">
        <ele>289.5</ele>
        <time>2017-06-04T08:41:58Z</time>
      </trkpt>
      <trkpt lat="43.5764" lon="1.14167">
        <ele>288.2</ele>
        <time>2017-06-04T08:42:02Z</time>
      </trkpt>
      <trkpt lat="43.57636" lon="1.14179">
        <ele>286.9</ele>
        <time>2017-06-04T08:42:06Z</time>
      </trkpt>
      <trkpt lat="43.5763" lon="1.14189">
        <ele>285.5</ele>
        <time>2017-06-04T08:42:10Z</time>
      </trkpt>
      <trkpt lat="43.57625" lon="1.14202">
        <ele>284.3</ele>
        <time>2017-06-04T08:42:16Z</time>
      </trkpt>
      <trkpt lat="43.5762" lon="1.14214">
        <ele>283.1</ele>
        <time>2017-06-04T08:42:20Z</time>
      </trkpt>
      <trkpt lat="43.57616" lon="1.14226">
        <ele>282</ele>
        <time>2017-06-04T08:42:24Z</time>
      </trkpt>
      <trkpt lat="43.57612" lon="1.14239">
        <ele>281</ele>
        <time>2017-06-04T08:42:28Z</time>
      </trkpt>
      <trkpt lat="43.57606" lon="1.14253">
        <ele>280</ele>
        <time>2017-06-04T08:42:32Z</time>
      </trkpt>
      <trkpt lat="43.57597" lon="1.14266">
        <ele>279</ele>
        <time>2017-06-04T08:42:35Z</time>
      </trkpt>
      <trkpt lat="43.57592" lon="1.14276">
        <ele>278</ele>
        <time>2017-06-04T08:42:37Z</time>
      </trkpt>
      <trkpt lat="43.57586" lon="1.14288">
        <ele>277</ele>
        <time>2017-06-04T08:42:39Z</time>
      </trkpt>
      <trkpt lat="43.57581" lon="1.14303">
        <ele>276</ele>
        <time>2017-06-04T08:42:41Z</time>
      </trkpt>
      <trkpt lat="43.57575" lon="1.14317">
        <ele>275</ele>
        <time>2017-06-04T08:42:43Z</time>
      </trkpt>
      <trkpt lat="43.57569" lon="1.14331">
        <ele>274</ele>
        <time>2017-06-04T08:42:46Z</time>
      </trkpt>
      <trkpt lat="43.57565" lon="1.14343">
        <ele>273</ele>
        <time>2017-06-04T08:42:48Z</time>
      </trkpt>
      <trkpt lat="43.57559" lon="1.14355">
        <ele>272</ele>
        <time>2017-06-04T08:42:50Z</time>
      </trkpt>
      <trkpt lat="43.57554" lon="1.14365">
        <ele>271</ele>
        <time>2017-06-04T08:42:52Z</time>
      </trkpt>
      <trkpt lat="43.57548" lon="1.14379">
        <ele>270</ele>
        <time>2017-06-04T08:42:55Z</time>
      </trkpt>
      <trkpt lat="43.57543" lon="1.14392">
        <ele>269.1</ele>
        <time>2017-06-04T08:42:59Z</time>
      </trkpt>
      <trkpt lat="43.57536" lon="1.14404">
        <ele>268.3</ele>
        <time>2017-06-04T08:43:03Z</time>
      </trkpt>
      <trkpt lat="43.57538" lon="1.14418">
        <ele>267.4</ele>
        <time>2017-06-04T08:43:21Z</time>
      </trkpt>
      <trkpt lat="43.5753" lon="1.1443">
        <ele>266.4</ele>
        <time>2017-06-04T08:43:27Z</time>
      </trkpt>
      <trkpt lat="43.57524" lon="1.14439">
        <ele>265.3</ele>
        <time>2017-06-04T08:43:33Z</time>
      </trkpt>
      <trkpt lat="43.57521" lon="1.14455">
        <ele>264.2</ele>
        <time>2017-06-04T08:43:39Z</time>
      </trkpt>
      <trkpt lat="43.57514" lon="1.14465">
        <ele>263.2</ele>
        <time>2017-06-04T08:43:43Z</time>
      </trkpt>
      <trkpt lat="43.57509" lon="1.14476">
        <ele>262.2</ele>
        <time>2017-06-04T08:43:47Z</time>
      </trkpt>
      <trkpt lat="43.57504" lon="1.14491">
        <ele>261.3</ele>
        <time>2017-06-04T08:43:51Z</time>
      </trkpt>
      <trkpt lat="43.57497" lon="1.145">
        <ele>260.5</ele>
        <time>2017-06-04T08:43:54Z</time>
      </trkpt>
      <trkpt lat="43.57491" lon="1.14513">
        <ele>259.8</ele>
        <time>2017-06-04T08:43:57Z</time>
      </trkpt>
      <trkpt lat="43.57486" lon="1.14525">
        <ele>259.3</ele>
        <time>2017-06-04T08:44:00Z</time>
      </trkpt>
      <trkpt lat="43.57482" lon="1.14537">
        <ele>258.8</ele>
        <time>2017-06-04T08:44:03Z</time>
      </trkpt>
      <trkpt lat="43.5748" lon="1.14551">
        <ele>258.5</ele>
        <time>2017-06-04T08:44:07Z</time>
      </trkpt>
      <trkpt lat="43.57475" lon="1.14562">
        <ele>258.4</ele>
        <time>2017-06-04T08:44:11Z</time>
      </trkpt>
      <trkpt lat="43.57471" lon="1.14573">
        <ele>258.5</ele>
        <time>2017-06-04T08:44:15Z</time>
      </trkpt>
      <trkpt lat="43.57466" lon="1.14587">
        <ele>258.6</ele>
        <time>2017-06-04T08:44:19Z</time>
      </trkpt>
      <trkpt lat="43.57462" lon="1.14601">
        <ele>258.8</ele>
        <time>2017-06-04T08:44:23Z</time>
      </trkpt>
      <trkpt lat="43.57456" lon="1.14612">
        <ele>259</ele>
        <time>2017-06-04T08:44:27Z</time>
      </trkpt>
      <trkpt lat="43.57453" lon="1.14626">
        <ele>259.3</ele>
        <time>2017-06-04T08:44:31Z</time>
      </trkpt>
      <trkpt lat="43.57454" lon="1.14639">
        <ele>259.6</ele>
        <time>2017-06-04T08:44:37Z</time>
      </trkpt>
      <trkpt lat="43.57461" lon="1.14646">
        <ele>259.9</ele>
        <time>2017-06-04T08:45:14Z</time>
      </trkpt>
      <trkpt lat="43.57467" lon="1.14655">
        <ele>260.3</ele>
        <time>2017-06-04T08:45:19Z</time>
      </trkpt>
      <trkpt lat="43.57475" lon="1.14666">
        <ele>260.7</ele>
        <time>2017-06-04T08:45:24Z</time>
      </trkpt>
      <trkpt lat="43.5748" lon="1.14678">
        <ele>261.5</ele>
        <time>2017-06-04T08:45:28Z</time>
      </trkpt>
      <trkpt lat="43.57488" lon="1.14687">
        <ele>262.2</ele>
        <time>2017-06-04T08:45:33Z</time>
      </trkpt>
      <trkpt lat="43.5749" lon="1.14699">
        <ele>263</ele>
        <time>2017-06-04T08:45:38Z</time>
      </trkpt>
      <trkpt lat="43.57498" lon="1.14706">
        <ele>263.8</ele>
        <time>2017-06-04T08:45:43Z</time>
      </trkpt>
      <trkpt lat="43.57508" lon="1.14712">
        <ele>264.7</ele>
        <time>2017-06-04T08:45:49Z</time>
      </trkpt>
      <trkpt lat="43.57517" lon="1.14717">
        <ele>265.7</ele>
        <time>2017-06-04T08:45:56Z</time>
      </trkpt>
      <trkpt lat="43.57525" lon="1.14724">
        <ele>266.7</ele>
        <time>2017-06-04T08:46:02Z</time>
      </trkpt>
      <trkpt lat="43.57531" lon="1.14735">
        <ele>267.7</ele>
        <time>2017-06-04T08:46:10Z</time>
      </trkpt>
      <trkpt lat="43.57538" lon="1.14743">
        <ele>268.8</ele>
        <time>2017-06-04T08:46:15Z</time>
      </trkpt>
      <trkpt lat="43.57546" lon="1.14751">
        <ele>270</ele>
        <time>2017-06-04T08:46:19Z</time>
      </trkpt>
      <trkpt lat="43.57553" lon="1.14762">
        <ele>271.3</ele>
        <time>2017-06-04T08:46:23Z</time>
      </trkpt>
      <trkpt lat="43.57561" lon="1.1477">
        <ele>272.5</ele>
        <time>2017-06-04T08:46:27Z</time>
      </trkpt>
      <trkpt lat="43.57569" lon="1.1478">
        <ele>273.6</ele>
        <time>2017-06-04T08:46:31Z</time>
      </trkpt>
      <trkpt lat="43.57578" lon="1.1479">
        <ele>274.8</ele>
        <time>2017-06-04T08:46:35Z</time>
      </trkpt>
      <trkpt lat="43.57588" lon="1.148">
        <ele>275.9</ele>
        <time>2017-06-04T08:46:39Z</time>
      </trkpt>
      <trkpt lat="43.57598" lon="1.14807">
        <ele>276.9</ele>
        <time>2017-06-04T08:46:43Z</time>
      </trkpt>
      <trkpt lat="43.57606" lon="1.14814">
        <ele>277.9</ele>
        <time>2017-06-04T08:46:47Z</time>
      </trkpt>
      <trkpt lat="43.57613" lon="1.14824">
        <ele>278.8</ele>
        <time>2017-06-04T08:46:51Z</time>
      </trkpt>
      <trkpt lat="43.57618" lon="1.14835">
        <ele>279.8</ele>
        <time>2017-06-04T08:46:55Z</time>
      </trkpt>
      <trkpt lat="43.57619" lon="1.1485">
        <ele>280.8</ele>
        <time>2017-06-04T08:46:59Z</time>
      </trkpt>
      <trkpt lat="43.57614" lon="1.14862">
        <ele>281.7</ele>
        <time>2017-06-04T08:47:03Z</time>
      </trkpt>
      <trkpt lat="43.57615" lon="1.14876">
        <ele>282.5</ele>
        <time>2017-06-04T08:47:16Z</time>
      </trkpt>
      <trkpt lat="43.57611" lon="1.14888">
        <ele>283.4</ele>
        <time>2017-06-04T08:47:27Z</time>
      </trkpt>
      <trkpt lat="43.5761" lon="1.14901">
        <ele>284.2</ele>
        <time>2017-06-04T08:47:43Z</time>
      </trkpt>
      <trkpt lat="43.57608" lon="1.14914">
        <ele>285</ele>
        <time>2017-06-04T08:47:54Z</time>
      </trkpt>
      <trkpt lat="43.57606" lon="1.14926">
        <ele>285.9</ele>
        <time>2017-06-04T08:48:01Z</time>
      </trkpt>
      <trkpt lat="43.57603" lon="1.14938">
        <ele>286.7</ele>
        <time>2017-06-04T08:48:45Z</time>
      </trkpt>
      <trkpt lat="43.576" lon="1.14954">
        <ele>287.5</ele>
        <time>2017-06-04T08:48:51Z</time>
      </trkpt>
      <trkpt lat="43.57601" lon="1.14969">
        <ele>288.1</ele>
        <time>2017-06-04T08:48:56Z</time>
      </trkpt>
      <trkpt lat="43.57606" lon="1.14982">
        <ele>288.6</ele>
        <time>2017-06-04T08:49:00Z</time>
      </trkpt>
      <trkpt lat="43.57609" lon="1.14996">
        <ele>289.2</ele>
        <time>2017-06-04T08:49:04Z</time>
      </trkpt>
      <trkpt lat="43.57613" lon="1.15008">
        <ele>289.7</ele>
        <time>2017-06-04T08:49:08Z</time>
      </trkpt>
      <trkpt lat="43.57616" lon="1.15021">
        <ele>290.2</ele>
        <time>2017-06-04T08:49:12Z</time>
      </trkpt>
      <trkpt lat="43.5762" lon="1.15033">
        <ele>290.5</ele>
        <time>2017-06-04T08:49:16Z</time>
      </trkpt>
      <trkpt lat="43.5763" lon="1.15034">
        <ele>290.8</ele>
        <time>2017-06-04T08:49:20Z</time>
      </trkpt>
      <trkpt lat="43.57638" lon="1.15026">
        <ele>291.1</ele>
        <time>2017-06-04T08:49:24Z</time>
      </trkpt>
      <trkpt lat="43.57644" lon="1.15016">
        <ele>291.4</ele>
        <time>2017-06-04T08:49:29Z</time>
      </trkpt>
      <trkpt lat="43.57654" lon="1.15007">
        <ele>291.7</ele>
        <time>2017-06-04T08:49:34Z</time>
      </trkpt>
      <trkpt lat="43.57663" lon="1.14998">
        <ele>292.2</ele>
        <time>2017-06-04T08:49:38Z</time>
      </trkpt>
      <trkpt lat="43.57672" lon="1.14989">
        <ele>292.8</ele>
        <time>2017-06-04T08:49:42Z</time>
      </trkpt>
      <trkpt lat="43.57683" lon="1.14984">
        <ele>293.4</ele>
        <time>2017-06-04T08:49:46Z</time>
      </trkpt>
      <trkpt lat="43.57691" lon="1.14976">
        <ele>293.8</ele>
        <time>2017-06-04T08:49:50Z</time>
      </trkpt>
      <trkpt lat="43.57698" lon="1.14966">
        <ele>294.2</ele>
        <time>2017-06-04T08:49:54Z</time>
      </trkpt>
      <trkpt lat="43.57706" lon="1.14957">
        <ele>294.5</ele>
        <time>2017-06-04T08:49:58Z</time>
      </trkpt>
      <trkpt lat="43.57713" lon="1.14948">
        <ele>295</ele>
        <time>2017-06-04T08:50:02Z</time>
      </trkpt>
      <trkpt lat="43.5772" lon="1.14938">
        <ele>295.5</ele>
        <time>2017-06-04T08:50:06Z</time>
      </trkpt>
      <trkpt lat="43.57727" lon="1.14928">
        <ele>295.9</ele>
        <time>2017-06-04T08:50:10Z</time>
      </trkpt>
      <trkpt lat="43.57736" lon="1.14919">
        <ele>296.3</ele>
        <time>2017-06-04T08:50:14Z</time>
      </trkpt>
      <trkpt lat="43.57745" lon="1.1491">
        <ele>296.6</ele>
        <time>2017-06-04T08:50:18Z</time>
      </trkpt>
      <trkpt lat="43.57753" lon="1.14901">
        <ele>296.9</ele>
        <time>2017-06-04T08:50:22Z</time>
      </trkpt>
      <trkpt lat="43.57762" lon="1.14893">
        <ele>297.2</ele>
        <time>2017-06-04T08:50:26Z</time>
      </trkpt>
      <trkpt lat="43.57771" lon="1.14887">
        <ele>297.5</ele>
        <time>2017-06-04T08:50:30Z</time>
      </trkpt>
      <trkpt lat="43.57779" lon="1.14881">
        <ele>297.7</ele>
        <time>2017-06-04T08:50:53Z</time>
      </trkpt>
      <trkpt lat="43.57788" lon="1.14876">
        <ele>298</ele>
        <time>2017-06-04T08:50:59Z</time>
      </trkpt>
      <trkpt lat="43.57798" lon="1.14871">
        <ele>298.4</ele>
        <time>2017-06-04T08:51:04Z</time>
      </trkpt>
      <trkpt lat="43.57809" lon="1.14868">
        <ele>298.6</ele>
        <time>2017-06-04T08:51:09Z</time>
      </trkpt>
      <trkpt lat="43.57819" lon="1.14866">
        <ele>299</ele>
        <time>2017-06-04T08:51:14Z</time>
      </trkpt>
      <trkpt lat="43.5783" lon="1.14863">
        <ele>299.4</ele>
        <time>2017-06-04T08:51:20Z</time>
      </trkpt>
      <trkpt lat="43.5784" lon="1.14862">
        <ele>299.7</ele>
        <time>2017-06-04T08:51:24Z</time>
      </trkpt>
      <trkpt lat="43.5785" lon="1.14861">
        <ele>300.2</ele>
        <time>2017-06-04T08:51:28Z</time>
      </trkpt>
      <trkpt lat="43.5786" lon="1.14859">
        <ele>300.7</ele>
        <time>2017-06-04T08:51:32Z</time>
      </trkpt>
      <trkpt lat="43.57869" lon="1.14857">
        <ele>301.2</ele>
        <time>2017-06-04T08:51:36Z</time>
      </trkpt>
      <trkpt lat="43.57879" lon="1.14856">
        <ele>301.6</ele>
        <time>2017-06-04T08:51:40Z</time>
      </trkpt>
      <trkpt lat="43.57888" lon="1.14856">
        <ele>302.2</ele>
        <time>2017-06-04T08:51:44Z</time>
      </trkpt>
      <trkpt lat="43.57898" lon="1.14857">
        <ele>302.7</ele>
        <time>2017-06-04T08:51:48Z</time>
      </trkpt>
      <trkpt lat="43.57908" lon="1.14858">
        <ele>303.1</ele>
        <time>2017-06-04T08:51:52Z</time>
      </trkpt>
      <trkpt lat="43.57917" lon="1.14858">
        <ele>303.5</ele>
        <time>2017-06-04T08:51:56Z</time>
      </trkpt>
      <trkpt lat="43.57928" lon="1.1486">
        <ele>303.6</ele>
        <time>2017-06-04T08:52:01Z</time>
      </trkpt>
      <trkpt lat="43.57939" lon="1.14863">
        <ele>303.7</ele>
        <time>2017-06-04T08:52:06Z</time>
      </trkpt>
      <trkpt lat="43.57947" lon="1.14869">
        <ele>303.9</ele>
        <time>2017-06-04T08:52:10Z</time>
      </trkpt>
      <trkpt lat="43.57952" lon="1.1488">
        <ele>304</ele>
        <time>2017-06-04T08:52:14Z</time>
      </trkpt>
      <trkpt lat="43.57957" lon="1.14892">
        <ele>304</ele>
        <time>2017-06-04T08:52:19Z</time>
      </trkpt>
      <trkpt lat="43.57962" lon="1.14904">
        <ele>304</ele>
        <time>2017-06-04T08:52:24Z</time>
      </trkpt>
      <trkpt lat="43.57954" lon="1.14896">
        <ele>304</ele>
        <time>2017-06-04T08:52:33Z</time>
      </trkpt>
      <trkpt lat="43.57948" lon="1.14884">
        <ele>303.9</ele>
        <time>2017-06-04T08:52:38Z</time>
      </trkpt>
      <trkpt lat="43.57942" lon="1.14873">
        <ele>303.8</ele>
        <time>2017-06-04T08:52:43Z</time>
      </trkpt>
      <trkpt lat="43.57932" lon="1.14867">
        <ele>303.8</ele>
        <time>2017-06-04T08:52:48Z</time>
      </trkpt>
      <trkpt lat="43.57923" lon="1.14866">
        <ele>303.7</ele>
        <time>2017-06-04T08:52:52Z</time>
      </trkpt>
      <trkpt lat="43.57932" lon="1.14869">
        <ele>303.6</ele>
        <time>2017-06-04T08:53:06Z</time>
      </trkpt>
      <trkpt lat="43.57941" lon="1.14871">
        <ele>303.5</ele>
        <time>2017-06-04T08:53:11Z</time>
      </trkpt>
      <trkpt lat="43.57949" lon="1.14879">
        <ele>303.2</ele>
        <time>2017-06-04T08:53:16Z</time>
      </trkpt>
      <trkpt lat="43.57954" lon="1.1489">
        <ele>302.8</ele>
        <time>2017-06-04T08:53:20Z</time>
      </trkpt>
      <trkpt lat="43.5796" lon="1.14902">
        <ele>302.5</ele>
        <time>2017-06-04T08:53:25Z</time>
      </trkpt>
      <trkpt lat="43.57966" lon="1.14914">
        <ele>302.3</ele>
        <time>2017-06-04T08:53:30Z</time>
      </trkpt>
      <trkpt lat="43.57971" lon="1.14927">
        <ele>302</ele>
        <time>2017-06-04T08:53:35Z</time>
      </trkpt>
      <trkpt lat="43.57976" lon="1.14938">
        <ele>301.8</ele>
        <time>2017-06-04T08:53:39Z</time>
      </trkpt>
      <trkpt lat="43.57982" lon="1.14948">
        <ele>301.6</ele>
        <time>2017-06-04T08:53:43Z</time>
      </trkpt>
      <trkpt lat="43.57988" lon="1.14959">
        <ele>301.4</ele>
        <time>2017-06-04T08:53:47Z</time>
      </trkpt>
      <trkpt lat="43.57996" lon="1.14966">
        <ele>301.2</ele>
        <time>2017-06-04T08:53:51Z</time>
      </trkpt>
      <trkpt lat="43.58" lon="1.14978">
        <ele>300.9</ele>
        <time>2017-06-04T08:53:57Z</time>
      </trkpt>
      <trkpt lat="43.57994" lon="1.14989">
        <ele>300.6</ele>
        <time>2017-06-04T08:54:11Z</time>
      </trkpt>
      <trkpt lat="43.57992" lon="1.15005">
        <ele>300.3</ele>
        <time>2017-06-04T08:54:16Z</time>
      </trkpt>
      <trkpt lat="43.5799" lon="1.15019">
        <ele>299.9</ele>
        <time>2017-06-04T08:54:21Z</time>
      </trkpt>
      <trkpt lat="43.57988" lon="1.15033">
        <ele>299.4</ele>
        <time>2017-06-04T08:54:26Z</time>
      </trkpt>
      <trkpt lat="43.57988" lon="1.15046">
        <ele>298.6</ele>
        <time>2017-06-04T08:54:30Z</time>
      </trkpt>
      <trkpt lat="43.57987" lon="1.15058">
        <ele>297.9</ele>
        <time>2017-06-04T08:54:34Z</time>
      </trkpt>
      <trkpt lat="43.57986" lon="1.15071">
        <ele>297.1</ele>
        <time>2017-06-04T08:54:38Z</time>
      </trkpt>
      <trkpt lat="43.57985" lon="1.15084">
        <ele>296.2</ele>
        <time>2017-06-04T08:54:42Z</time>
      </trkpt>
      <trkpt lat="43.57983" lon="1.15099">
        <ele>295.4</ele>
        <time>2017-06-04T08:54:47Z</time>
      </trkpt>
      <trkpt lat="43.57982" lon="1.15114">
        <ele>294.5</ele>
        <time>2017-06-04T08:54:52Z</time>
      </trkpt>
      <trkpt lat="43.5798" lon="1.15128">
        <ele>293.9</ele>
        <time>2017-06-04T08:54:57Z</time>
      </trkpt>
      <trkpt lat="43.57978" lon="1.15142">
        <ele>293.4</ele>
        <time>2017-06-04T08:55:02Z</time>
      </trkpt>
      <trkpt lat="43.57978" lon="1.15157">
        <ele>292.9</ele>
        <time>2017-06-04T08:55:07Z</time>
      </trkpt>
      <trkpt lat="43.57977" lon="1.15172">
        <ele>292.6</ele>
        <time>2017-06-04T08:55:12Z</time>
      </trkpt>
      <trkpt lat="43.57976" lon="1.15187">
        <ele>292.5</ele>
        <time>2017-06-04T08:55:17Z</time>
      </trkpt>
      <trkpt lat="43.57975" lon="1.152">
        <ele>292.5</ele>
        <time>2017-06-04T08:55:22Z</time>
      </trkpt>
      <trkpt lat="43.57974" lon="1.15214">
        <ele>292.5</ele>
        <time>2017-06-04T08:55:27Z</time>
      </trkpt>
      <trkpt lat="43.57972" lon="1.15229">
        <ele>292.5</ele>
        <time>2017-06-04T08:55:32Z</time>
      </trkpt>
      <trkpt lat="43.57969" lon="1.15243">
        <ele>292.5</ele>
        <time>2017-06-04T08:55:37Z</time>
      </trkpt>
      <trkpt lat="43.57966" lon="1.15257">
        <ele>292.5</ele>
        <time>2017-06-04T08:55:42Z</time>
      </trkpt>
      <trkpt lat="43.57964" lon="1.15272">
        <ele>292.5</ele>
        <time>2017-06-04T08:55:47Z</time>
      </trkpt>
      <trkpt lat="43.57962" lon="1.15285">
        <ele>292.5</ele>
        <time>2017-06-04T08:55:52Z</time>
      </trkpt>
      <trkpt lat="43.57957" lon="1.15296">
        <ele>292.5</ele>
        <time>2017-06-04T08:55:56Z</time>
      </trkpt>
      <trkpt lat="43.57951" lon="1.15308">
        <ele>292.6</ele>
        <time>2017-06-04T08:56:01Z</time>
      </trkpt>
      <trkpt lat="43.57943" lon="1.15319">
        <ele>292.6</ele>
        <time>2017-06-04T08:56:06Z</time>
      </trkpt>
      <trkpt lat="43.57936" lon="1.1533">
        <ele>292.6</ele>
        <time>2017-06-04T08:56:11Z</time>
      </trkpt>
      <trkpt lat="43.5793" lon="1.15342">
        <ele>292.6</ele>
        <time>2017-06-04T08:56:16Z</time>
      </trkpt>
      <trkpt lat="43.57924" lon="1.15354">
        <ele>292.6</ele>
        <time>2017-06-04T08:56:21Z</time>
      </trkpt>
      <trkpt lat="43.57919" lon="1.15365">
        <ele>292.6</ele>
        <time>2017-06-04T08:56:25Z</time>
      </trkpt>
      <trkpt lat="43.57913" lon="1.15376">
        <ele>292.7</ele>
        <time>2017-06-04T08:56:30Z</time>
      </trkpt>
      <trkpt lat="43.57906" lon="1.15388">
        <ele>292.8</ele>
        <time>2017-06-04T08:56:35Z</time>
      </trkpt>
      <trkpt lat="43.579" lon="1.15398">
        <ele>292.8</ele>
        <time>2017-06-04T08:56:39Z</time>
      </trkpt>
      <trkpt lat="43.57892" lon="1.15409">
        <ele>292.8</ele>
        <time>2017-06-04T08:56:44Z</time>
      </trkpt>
      <trkpt lat="43.57885" lon="1.15418">
        <ele>292.7</ele>
        <time>2017-06-04T08:56:48Z</time>
      </trkpt>
      <trkpt lat="43.57879" lon="1.15427">
        <ele>292.6</ele>
        <time>2017-06-04T08:56:52Z</time>
      </trkpt>
      <trkpt lat="43.5787" lon="1.15436">
        <ele>292.6</ele>
        <time>2017-06-04T08:56:57Z</time>
      </trkpt>
      <trkpt lat="43.57862" lon="1.15443">
        <ele>292.7</ele>
        <time>2017-06-04T08:57:01Z</time>
      </trkpt>
      <trkpt lat="43.57854" lon="1.15453">
        <ele>292.8</ele>
        <time>2017-06-04T08:57:06Z</time>
      </trkpt>
      <trkpt lat="43.57847" lon="1.15463">
        <ele>293</ele>
        <time>2017-06-04T08:57:11Z</time>
      </trkpt>
      <trkpt lat="43.57838" lon="1.15472">
        <ele>293.2</ele>
        <time>2017-06-04T08:57:16Z</time>
      </trkpt>
      <trkpt lat="43.5783" lon="1.15479">
        <ele>293.4</ele>
        <time>2017-06-04T08:57:21Z</time>
      </trkpt>
      <trkpt lat="43.57822" lon="1.15488">
        <ele>293.6</ele>
        <time>2017-06-04T08:57:26Z</time>
      </trkpt>
      <trkpt lat="43.57813" lon="1.15494">
        <ele>294.1</ele>
        <time>2017-06-04T08:57:31Z</time>
      </trkpt>
      <trkpt lat="43.57804" lon="1.15502">
        <ele>294.5</ele>
        <time>2017-06-04T08:57:36Z</time>
      </trkpt>
      <trkpt lat="43.57795" lon="1.15508">
        <ele>295</ele>
        <time>2017-06-04T08:57:41Z</time>
      </trkpt>
      <trkpt lat="43.57788" lon="1.15515">
        <ele>295.5</ele>
        <time>2017-06-04T08:57:45Z</time>
      </trkpt>
      <trkpt lat="43.57782" lon="1.15527">
        <ele>295.8</ele>
        <time>2017-06-04T08:57:50Z</time>
      </trkpt>
      <trkpt lat="43.57777" lon="1.15538">
        <ele>296.1</ele>
        <time>2017-06-04T08:57:54Z</time>
      </trkpt>
      <trkpt lat="43.5777" lon="1.15546">
        <ele>296.4</ele>
        <time>2017-06-04T08:57:58Z</time>
      </trkpt>
      <trkpt lat="43.57762" lon="1.15555">
        <ele>296.5</ele>
        <time>2017-06-04T08:58:02Z</time>
      </trkpt>
      <trkpt lat="43.57755" lon="1.15564">
        <ele>296.5</ele>
        <time>2017-06-04T08:58:06Z</time>
      </trkpt>
      <trkpt lat="43.57748" lon="1.15573">
        <ele>296.6</ele>
        <time>2017-06-04T08:58:10Z</time>
      </trkpt>
      <trkpt lat="43.57742" lon="1.15583">
        <ele>296.5</ele>
        <time>2017-06-04T08:58:14Z</time>
      </trkpt>
      <trkpt lat="43.57735" lon="1.15592">
        <ele>296.4</ele>
        <time>2017-06-04T08:58:18Z</time>
      </trkpt>
      <trkpt lat="43.57729" lon="1.15602">
        <ele>296.2</ele>
        <time>2017-06-04T08:58:22Z</time>
      </trkpt>
      <trkpt lat="43.57722" lon="1.15612">
        <ele>296</ele>
        <time>2017-06-04T08:58:27Z</time>
      </trkpt>
      <trkpt lat="43.57714" lon="1.15623">
        <ele>295.9</ele>
        <time>2017-06-04T08:58:32Z</time>
      </trkpt>
      <trkpt lat="43.57707" lon="1.15632">
        <ele>295.7</ele>
        <time>2017-06-04T08:58:36Z</time>
      </trkpt>
      <trkpt lat="43.57699" lon="1.1564">
        <ele>295.6</ele>
        <time>2017-06-04T08:58:40Z</time>
      </trkpt>
      <trkpt lat="43.57691" lon="1.15649">
        <ele>295.5</ele>
        <time>2017-06-04T08:58:45Z</time>
      </trkpt>
      <trkpt lat="43.57684" lon="1.1566">
        <ele>295.5</ele>
        <time>2017-06-04T08:58:50Z</time>
      </trkpt>
      <trkpt lat="43.57679" lon="1.15671">
        <ele>295.4</ele>
        <time>2017-06-04T08:58:54Z</time>
      </trkpt>
      <trkpt lat="43.57672" lon="1.15682">
        <ele>295.2</ele>
        <time>2017-06-04T08:58:58Z</time>
      </trkpt>
      <trkpt lat="43.57666" lon="1.15692">
        <ele>295.2</ele>
        <time>2017-06-04T08:59:02Z</time>
      </trkpt>
      <trkpt lat="43.5766" lon="1.15702">
        <ele>295.3</ele>
        <time>2017-06-04T08:59:06Z</time>
      </trkpt>
      <trkpt lat="43.57652" lon="1.15712">
        <ele>295.5</ele>
        <time>2017-06-04T08:59:11Z</time>
      </trkpt>
      <trkpt lat="43.57645" lon="1.15721">
        <ele>295.7</ele>
        <time>2017-06-04T08:59:16Z</time>
      </trkpt>
      <trkpt lat="43.57636" lon="1.1573">
        <ele>296</ele>
        <time>2017-06-04T08:59:21Z</time>
      </trkpt>
      <trkpt lat="43.5763" lon="1.15739">
        <ele>296.4</ele>
        <time>2017-06-04T08:59:25Z</time>
      </trkpt>
      <trkpt lat="43.57623" lon="1.15749">
        <ele>296.7</ele>
        <time>2017-06-04T08:59:29Z</time>
      </trkpt>
      <trkpt lat="43.57617" lon="1.15761">
        <ele>297</ele>
        <time>2017-06-04T08:59:33Z</time>
      </trkpt>
      <trkpt lat="43.5761" lon="1.1577">
        <ele>297.3</ele>
        <time>2017-06-04T08:59:37Z</time>
      </trkpt>
      <trkpt lat="43.57604" lon="1.15779">
        <ele>297.5</ele>
        <time>2017-06-04T08:59:41Z</time>
      </trkpt>
      <trkpt lat="43.57595" lon="1.15788">
        <ele>297.7</ele>
        <time>2017-06-04T08:59:46Z</time>
      </trkpt>
      <trkpt lat="43.57588" lon="1.15796">
        <ele>297.8</ele>
        <time>2017-06-04T08:59:50Z</time>
      </trkpt>
      <trkpt lat="43.57581" lon="1.15804">
        <ele>297.7</ele>
        <time>2017-06-04T08:59:54Z</time>
      </trkpt>
      <trkpt lat="43.57574" lon="1.15813">
        <ele>297.5</ele>
        <time>2017-06-04T08:59:58Z</time>
      </trkpt>
      <trkpt lat="43.57567" lon="1.15823">
        <ele>297.1</ele>
        <time>2017-06-04T09:00:02Z</time>
      </trkpt>
      <trkpt lat="43.5756" lon="1.15833">
        <ele>296.6</ele>
        <time>2017-06-04T09:00:07Z</time>
      </trkpt>
      <trkpt lat="43.57554" lon="1.15844">
        <ele>296.2</ele>
        <time>2017-06-04T09:00:11Z</time>
      </trkpt>
      <trkpt lat="43.57544" lon="1.1585">
        <ele>295.6</ele>
        <time>2017-06-04T09:00:16Z</time>
      </trkpt>
      <trkpt lat="43.57538" lon="1.15862">
        <ele>295.2</ele>
        <time>2017-06-04T09:00:21Z</time>
      </trkpt>
      <trkpt lat="43.57537" lon="1.15877">
        <ele>294.8</ele>
        <time>2017-06-04T09:00:25Z</time>
      </trkpt>
      <trkpt lat="43.57534" lon="1.15889">
        <ele>294.5</ele>
        <time>2017-06-04T09:00:29Z</time>
      </trkpt>
      <trkpt lat="43.5753" lon="1.15903">
        <ele>294.4</ele>
        <time>2017-06-04T09:00:33Z</time>
      </trkpt>
      <trkpt lat="43.57527" lon="1.15915">
        <ele>294.3</ele>
        <time>2017-06-04T09:00:37Z</time>
      </trkpt>
      <trkpt lat="43.57524" lon="1.15928">
        <ele>294.3</ele>
        <time>2017-06-04T09:00:41Z</time>
      </trkpt>
      <trkpt lat="43.57519" lon="1.1594">
        <ele>294.5</ele>
        <time>2017-06-04T09:00:45Z</time>
      </trkpt>
      <trkpt lat="43.57513" lon="1.1595">
        <ele>294.6</ele>
        <time>2017-06-04T09:00:49Z</time>
      </trkpt>
      <trkpt lat="43.57511" lon="1.15964">
        <ele>294.8</ele>
        <time>2017-06-04T09:00:54Z</time>
      </trkpt>
      <trkpt lat="43.57507" lon="1.15976">
        <ele>294.9</ele>
        <time>2017-06-04T09:00:58Z</time>
      </trkpt>
      <trkpt lat="43.57503" lon="1.15987">
        <ele>294.9</ele>
        <time>2017-06-04T09:01:02Z</time>
      </trkpt>
      <trkpt lat="43.575" lon="1.16003">
        <ele>294.8</ele>
        <time>2017-06-04T09:01:06Z</time>
      </trkpt>
      <trkpt lat="43.57494" lon="1.16016">
        <ele>294.7</ele>
        <time>2017-06-04T09:01:11Z</time>
      </trkpt>
      <trkpt lat="43.57489" lon="1.16027">
        <ele>294.6</ele>
        <time>2017-06-04T09:01:15Z</time>
      </trkpt>
      <trkpt lat="43.57484" lon="1.1604">
        <ele>294.5</ele>
        <time>2017-06-04T09:01:19Z</time>
      </trkpt>
      <trkpt lat="43.57478" lon="1.16052">
        <ele>294.3</ele>
        <time>2017-06-04T09:01:23Z</time>
      </trkpt>
      <trkpt lat="43.57473" lon="1.16065">
        <ele>294.1</ele>
        <time>2017-06-04T09:01:27Z</time>
      </trkpt>
      <trkpt lat="43.57468" lon="1.16077">
        <ele>293.8</ele>
        <time>2017-06-04T09:01:31Z</time>
      </trkpt>
      <trkpt lat="43.57463" lon="1.16089">
        <ele>293.5</ele>
        <time>2017-06-04T09:01:35Z</time>
      </trkpt>
      <trkpt lat="43.57457" lon="1.16102">
        <ele>293.1</ele>
        <time>2017-06-04T09:01:40Z</time>
      </trkpt>
      <trkpt lat="43.57453" lon="1.16113">
        <ele>292.7</ele>
        <time>2017-06-04T09:01:44Z</time>
      </trkpt>
      <trkpt lat="43.57448" lon="1.16126">
        <ele>292.5</ele>
        <time>2017-06-04T09:01:48Z</time>
      </trkpt>
      <trkpt lat="43.57442" lon="1.1614">
        <ele>292.3</ele>
        <time>2017-06-04T09:01:53Z</time>
      </trkpt>
      <trkpt lat="43.57436" lon="1.16152">
        <ele>292.1</ele>
        <time>2017-06-04T09:01:58Z</time>
      </trkpt>
      <trkpt lat="43.57431" lon="1.16166">
        <ele>291.9</ele>
        <time>2017-06-04T09:02:02Z</time>
      </trkpt>
      <trkpt lat="43.57426" lon="1.16177">
        <ele>291.8</ele>
        <time>2017-06-04T09:02:06Z</time>
      </trkpt>
      <trkpt lat="43.57423" lon="1.16189">
        <ele>291.6</ele>
        <time>2017-06-04T09:02:10Z</time>
      </trkpt>
      <trkpt lat="43.57416" lon="1.16201">
        <ele>291.5</ele>
        <time>2017-06-04T09:02:15Z</time>
      </trkpt>
      <trkpt lat="43.57418" lon="1.16189">
        <ele>291.3</ele>
        <time>2017-06-04T09:02:22Z</time>
      </trkpt>
      <trkpt lat="43.57425" lon="1.16179">
        <ele>291.2</ele>
        <time>2017-06-04T09:02:25Z</time>
      </trkpt>
      <trkpt lat="43.57432" lon="1.16167">
        <ele>291.2</ele>
        <time>2017-06-04T09:02:29Z</time>
      </trkpt>
      <trkpt lat="43.57423" lon="1.16174">
        <ele>291.3</ele>
        <time>2017-06-04T09:02:39Z</time>
      </trkpt>
      <trkpt lat="43.57421" lon="1.16189">
        <ele>291.5</ele>
        <time>2017-06-04T09:02:42Z</time>
      </trkpt>
      <trkpt lat="43.57415" lon="1.16202">
        <ele>291.5</ele>
        <time>2017-06-04T09:02:46Z</time>
      </trkpt>
      <trkpt lat="43.57409" lon="1.16216">
        <ele>291.6</ele>
        <time>2017-06-04T09:02:50Z</time>
      </trkpt>
      <trkpt lat="43.57403" lon="1.16227">
        <ele>291.6</ele>
        <time>2017-06-04T09:02:54Z</time>
      </trkpt>
      <trkpt lat="43.57397" lon="1.16238">
        <ele>291.4</ele>
        <time>2017-06-04T09:02:58Z</time>
      </trkpt>
      <trkpt lat="43.5739" lon="1.16247">
        <ele>291.1</ele>
        <time>2017-06-04T09:03:02Z</time>
      </trkpt>
      <trkpt lat="43.57384" lon="1.16257">
        <ele>290.6</ele>
        <time>2017-06-04T09:03:06Z</time>
      </trkpt>
      <trkpt lat="43.57376" lon="1.16264">
        <ele>290</ele>
        <time>2017-06-04T09:03:10Z</time>
      </trkpt>
      <trkpt lat="43.57367" lon="1.16271">
        <ele>289.3</ele>
        <time>2017-06-04T09:03:14Z</time>
      </trkpt>
      <trkpt lat="43.57359" lon="1.16282">
        <ele>288.3</ele>
        <time>2017-06-04T09:03:20Z</time>
      </trkpt>
      <trkpt lat="43.5735" lon="1.1629">
        <ele>287.2</ele>
        <time>2017-06-04T09:03:25Z</time>
      </trkpt>
      <trkpt lat="43.57342" lon="1.16301">
        <ele>285.9</ele>
        <time>2017-06-04T09:03:30Z</time>
      </trkpt>
      <trkpt lat="43.57336" lon="1.16313">
        <ele>284.7</ele>
        <time>2017-06-04T09:03:35Z</time>
      </trkpt>
      <trkpt lat="43.57328" lon="1.16321">
        <ele>283.5</ele>
        <time>2017-06-04T09:03:40Z</time>
      </trkpt>
      <trkpt lat="43.5732" lon="1.1633">
        <ele>282.2</ele>
        <time>2017-06-04T09:03:45Z</time>
      </trkpt>
      <trkpt lat="43.57313" lon="1.16341">
        <ele>280.9</ele>
        <time>2017-06-04T09:03:49Z</time>
      </trkpt>
      <trkpt lat="43.57306" lon="1.1635">
        <ele>279.6</ele>
        <time>2017-06-04T09:03:53Z</time>
      </trkpt>
      <trkpt lat="43.573" lon="1.16361">
        <ele>278.5</ele>
        <time>2017-06-04T09:03:57Z</time>
      </trkpt>
      <trkpt lat="43.57292" lon="1.16371">
        <ele>277.3</ele>
        <time>2017-06-04T09:04:01Z</time>
      </trkpt>
      <trkpt lat="43.57282" lon="1.16377">
        <ele>276.1</ele>
        <time>2017-06-04T09:04:06Z</time>
      </trkpt>
      <trkpt lat="43.57274" lon="1.16386">
        <ele>274.9</ele>
        <time>2017-06-04T09:04:10Z</time>
      </trkpt>
      <trkpt lat="43.57265" lon="1.1639">
        <ele>273.6</ele>
        <time>2017-06-04T09:04:14Z</time>
      </trkpt>
      <trkpt lat="43.57254" lon="1.16393">
        <ele>272.3</ele>
        <time>2017-06-04T09:04:18Z</time>
      </trkpt>
      <trkpt lat="43.57245" lon="1.16398">
        <ele>270.8</ele>
        <time>2017-06-04T09:04:22Z</time>
      </trkpt>
      <trkpt lat="43.57236" lon="1.16403">
        <ele>269.4</ele>
        <time>2017-06-04T09:04:26Z</time>
      </trkpt>
      <trkpt lat="43.57225" lon="1.16409">
        <ele>267.9</ele>
        <time>2017-06-04T09:04:30Z</time>
      </trkpt>
      <trkpt lat="43.57215" lon="1.16418">
        <ele>266.5</ele>
        <time>2017-06-04T09:04:34Z</time>
      </trkpt>
      <trkpt lat="43.57207" lon="1.16426">
        <ele>265.2</ele>
        <time>2017-06-04T09:04:38Z</time>
      </trkpt>
      <trkpt lat="43.57198" lon="1.16434">
        <ele>263.8</ele>
        <time>2017-06-04T09:04:43Z</time>
      </trkpt>
      <trkpt lat="43.5719" lon="1.16442">
        <ele>262.5</ele>
        <time>2017-06-04T09:04:47Z</time>
      </trkpt>
      <trkpt lat="43.57182" lon="1.16453">
        <ele>261.2</ele>
        <time>2017-06-04T09:04:52Z</time>
      </trkpt>
      <trkpt lat="43.57172" lon="1.1646">
        <ele>259.9</ele>
        <time>2017-06-04T09:04:57Z</time>
      </trkpt>
      <trkpt lat="43.57162" lon="1.16466">
        <ele>258.7</ele>
        <time>2017-06-04T09:05:01Z</time>
      </trkpt>
      <trkpt lat="43.57153" lon="1.16475">
        <ele>257.6</ele>
        <time>2017-06-04T09:05:05Z</time>
      </trkpt>
      <trkpt lat="43.57145" lon="1.16483">
        <ele>256.6</ele>
        <time>2017-06-04T09:05:09Z</time>
      </trkpt>
      <trkpt lat="43.57136" lon="1.1649">
        <ele>255.8</ele>
        <time>2017-06-04T09:05:13Z</time>
      </trkpt>
      <trkpt lat="43.57128" lon="1.16496">
        <ele>255.1</ele>
        <time>2017-06-04T09:05:20Z</time>
      </trkpt>
      <trkpt lat="43.57119" lon="1.16501">
        <ele>254.5</ele>
        <time>2017-06-04T09:05:24Z</time>
      </trkpt>
      <trkpt lat="43.57111" lon="1.16509">
        <ele>254</ele>
        <time>2017-06-04T09:05:28Z</time>
      </trkpt>
      <trkpt lat="43.57106" lon="1.1652">
        <ele>253.5</ele>
        <time>2017-06-04T09:05:51Z</time>
      </trkpt>
      <trkpt lat="43.57096" lon="1.1653">
        <ele>252.8</ele>
        <time>2017-06-04T09:05:55Z</time>
      </trkpt>
      <trkpt lat="43.57088" lon="1.16539">
        <ele>252.1</ele>
        <time>2017-06-04T09:05:59Z</time>
      </trkpt>
      <trkpt lat="43.57082" lon="1.1655">
        <ele>251.4</ele>
        <time>2017-06-04T09:06:03Z</time>
      </trkpt>
      <trkpt lat="43.57079" lon="1.16564">
        <ele>250.5</ele>
        <time>2017-06-04T09:06:07Z</time>
      </trkpt>
      <trkpt lat="43.57076" lon="1.16576">
        <ele>249.7</ele>
        <time>2017-06-04T09:06:10Z</time>
      </trkpt>
      <trkpt lat="43.57073" lon="1.16591">
        <ele>248.8</ele>
        <time>2017-06-04T09:06:14Z</time>
      </trkpt>
      <trkpt lat="43.57071" lon="1.16606">
        <ele>247.7</ele>
        <time>2017-06-04T09:06:18Z</time>
      </trkpt>
      <trkpt lat="43.57069" lon="1.16619">
        <ele>246.6</ele>
        <time>2017-06-04T09:06:21Z</time>
      </trkpt>
      <trkpt lat="43.57063" lon="1.16633">
        <ele>245.5</ele>
        <time>2017-06-04T09:06:25Z</time>
      </trkpt>
      <trkpt lat="43.57057" lon="1.16645">
        <ele>244.4</ele>
        <time>2017-06-04T09:06:28Z</time>
      </trkpt>
      <trkpt lat="43.57051" lon="1.16656">
        <ele>243.4</ele>
        <time>2017-06-04T09:06:31Z</time>
      </trkpt>
      <trkpt lat="43.57044" lon="1.16664">
        <ele>242.5</ele>
        <time>2017-06-04T09:06:34Z</time>
      </trkpt>
      <trkpt lat="43.57032" lon="1.16666">
        <ele>242</ele>
        <time>2017-06-04T09:06:37Z</time>
      </trkpt>
      <trkpt lat="43.57023" lon="1.16666">
        <ele>241.5</ele>
        <time>2017-06-04T09:06:40Z</time>
      </trkpt>
      <trkpt lat="43.57012" lon="1.16664">
        <ele>241.1</ele>
        <time>2017-06-04T09:06:44Z</time>
      </trkpt>
      <trkpt lat="43.57001" lon="1.16661">
        <ele>240.6</ele>
        <time>2017-06-04T09:06:48Z</time>
      </trkpt>
      <trkpt lat="43.5699" lon="1.16658">
        <ele>240.2</ele>
        <time>2017-06-04T09:06:52Z</time>
      </trkpt>
      <trkpt lat="43.56979" lon="1.16653">
        <ele>239.6</ele>
        <time>2017-06-04T09:06:56Z</time>
      </trkpt>
      <trkpt lat="43.56969" lon="1.16649">
        <ele>239</ele>
        <time>2017-06-04T09:07:00Z</time>
      </trkpt>
      <trkpt lat="43.56958" lon="1.16646">
        <ele>238.2</ele>
        <time>2017-06-04T09:07:04Z</time>
      </trkpt>
      <trkpt lat="43.56947" lon="1.16644">
        <ele>237.3</ele>
        <time>2017-06-04T09:07:08Z</time>
      </trkpt>
      <trkpt lat="43.56935" lon="1.16642">
        <ele>236.3</ele>
        <time>2017-06-04T09:07:12Z</time>
      </trkpt>
      <trkpt lat="43.56924" lon="1.16642">
        <ele>235.2</ele>
        <time>2017-06-04T09:07:16Z</time>
      </trkpt>
      <trkpt lat="43.56913" lon="1.16644">
        <ele>234</ele>
        <time>2017-06-04T09:07:20Z</time>
      </trkpt>
      <trkpt lat="43.56904" lon="1.16645">
        <ele>232.7</ele>
        <time>2017-06-04T09:07:23Z</time>
      </trkpt>
      <trkpt lat="43.56891" lon="1.16646">
        <ele>231.5</ele>
        <time>2017-06-04T09:07:27Z</time>
      </trkpt>
      <trkpt lat="43.56881" lon="1.16646">
        <ele>230.5</ele>
        <time>2017-06-04T09:07:30Z</time>
      </trkpt>
      <trkpt lat="43.5687" lon="1.16645">
        <ele>229.4</ele>
        <time>2017-06-04T09:07:34Z</time>
      </trkpt>
      <trkpt lat="43.5686" lon="1.16648">
        <ele>228.5</ele>
        <time>2017-06-04T09:07:39Z</time>
      </trkpt>
      <trkpt lat="43.56849" lon="1.16646">
        <ele>227.5</ele>
        <time>2017-06-04T09:07:44Z</time>
      </trkpt>
      <trkpt lat="43.56839" lon="1.16649">
        <ele>226.7</ele>
        <time>2017-06-04T09:07:48Z</time>
      </trkpt>
      <trkpt lat="43.5683" lon="1.16651">
        <ele>226</ele>
        <time>2017-06-04T09:07:52Z</time>
      </trkpt>
      <trkpt lat="43.5682" lon="1.16653">
        <ele>225.4</ele>
        <time>2017-06-04T09:07:56Z</time>
      </trkpt>
      <trkpt lat="43.56809" lon="1.16652">
        <ele>224.8</ele>
        <time>2017-06-04T09:08:00Z</time>
      </trkpt>
      <trkpt lat="43.568" lon="1.16647">
        <ele>224.4</ele>
        <time>2017-06-04T09:08:03Z</time>
      </trkpt>
      <trkpt lat="43.56788" lon="1.16646">
        <ele>224</ele>
        <time>2017-06-04T09:08:07Z</time>
      </trkpt>
      <trkpt lat="43.56777" lon="1.16651">
        <ele>223.7</ele>
        <time>2017-06-04T09:08:11Z</time>
      </trkpt>
      <trkpt lat="43.56767" lon="1.16651">
        <ele>223.5</ele>
        <time>2017-06-04T09:08:15Z</time>
      </trkpt>
      <trkpt lat="43.56756" lon="1.16648">
        <ele>223.3</ele>
        <time>2017-06-04T09:08:20Z</time>
      </trkpt>
      <trkpt lat="43.56746" lon="1.16646">
        <ele>223.1</ele>
        <time>2017-06-04T09:08:24Z</time>
      </trkpt>
      <trkpt lat="43.56737" lon="1.16643">
        <ele>223</ele>
        <time>2017-06-04T09:08:28Z</time>
      </trkpt>
      <trkpt lat="43.56727" lon="1.1664">
        <ele>223</ele>
        <time>2017-06-04T09:08:33Z</time>
      </trkpt>
      <trkpt lat="43.56736" lon="1.16644">
        <ele>223.1</ele>
        <time>2017-06-04T09:08:44Z</time>
      </trkpt>
      <trkpt lat="43.56747" lon="1.16642">
        <ele>223.2</ele>
        <time>2017-06-04T09:08:48Z</time>
      </trkpt>
      <trkpt lat="43.56757" lon="1.16642">
        <ele>223.4</ele>
        <time>2017-06-04T09:08:52Z</time>
      </trkpt>
      <trkpt lat="43.56767" lon="1.16644">
        <ele>223.5</ele>
        <time>2017-06-04T09:08:56Z</time>
      </trkpt>
      <trkpt lat="43.56777" lon="1.16643">
        <ele>223.7</ele>
        <time>2017-06-04T09:09:00Z</time>
      </trkpt>
      <trkpt lat="43.56788" lon="1.16641">
        <ele>223.8</ele>
        <time>2017-06-04T09:09:04Z</time>
      </trkpt>
      <trkpt lat="43.56799" lon="1.16641">
        <ele>223.9</ele>
        <time>2017-06-04T09:09:08Z</time>
      </trkpt>
      <trkpt lat="43.56808" lon="1.16638">
        <ele>223.9</ele>
        <time>2017-06-04T09:09:12Z</time>
      </trkpt>
      <trkpt lat="43.56817" lon="1.16642">
        <ele>223.9</ele>
        <time>2017-06-04T09:09:16Z</time>
      </trkpt>
      <trkpt lat="43.56807" lon="1.16644">
        <ele>223.9</ele>
        <time>2017-06-04T09:09:27Z</time>
      </trkpt>
      <trkpt lat="43.56797" lon="1.16642">
        <ele>223.9</ele>
        <time>2017-06-04T09:09:31Z</time>
      </trkpt>
      <trkpt lat="43.56788" lon="1.16645">
        <ele>223.8</ele>
        <time>2017-06-04T09:09:35Z</time>
      </trkpt>
      <trkpt lat="43.56779" lon="1.1665">
        <ele>223.7</ele>
        <time>2017-06-04T09:09:39Z</time>
      </trkpt>
      <trkpt lat="43.5677" lon="1.16648">
        <ele>223.5</ele>
        <time>2017-06-04T09:09:43Z</time>
      </trkpt>
      <trkpt lat="43.56759" lon="1.16649">
        <ele>223.4</ele>
        <time>2017-06-04T09:09:48Z</time>
      </trkpt>
      <trkpt lat="43.56749" lon="1.16648">
        <ele>223.2</ele>
        <time>2017-06-04T09:09:52Z</time>
      </trkpt>
      <trkpt lat="43.56739" lon="1.16646">
        <ele>223.1</ele>
        <time>2017-06-04T09:09:57Z</time>
      </trkpt>
      <trkpt lat="43.56729" lon="1.16642">
        <ele>222.9</ele>
        <time>2017-06-04T09:10:02Z</time>
      </trkpt>
      <trkpt lat="43.56722" lon="1.1663">
        <ele>222.7</ele>
        <time>2017-06-04T09:10:07Z</time>
      </trkpt>
      <trkpt lat="43.56712" lon="1.16625">
        <ele>222.5</ele>
        <time>2017-06-04T09:10:12Z</time>
      </trkpt>
      <trkpt lat="43.56701" lon="1.16621">
        <ele>222</ele>
        <time>2017-06-04T09:10:17Z</time>
      </trkpt>
      <trkpt lat="43.56691" lon="1.16626">
        <ele>221.5</ele>
        <time>2017-06-04T09:10:22Z</time>
      </trkpt>
      <trkpt lat="43.56681" lon="1.16632">
        <ele>221</ele>
        <time>2017-06-04T09:10:27Z</time>
      </trkpt>
      <trkpt lat="43.56671" lon="1.16627">
        <ele>220.5</ele>
        <time>2017-06-04T09:10:31Z</time>
      </trkpt>
      <trkpt lat="43.5666" lon="1.16627">
        <ele>219.8</ele>
        <time>2017-06-04T09:10:36Z</time>
      </trkpt>
      <trkpt lat="43.5665" lon="1.16631">
        <ele>219.2</ele>
        <time>2017-06-04T09:10:41Z</time>
      </trkpt>
      <trkpt lat="43.56641" lon="1.16626">
        <ele>218.6</ele>
        <time>2017-06-04T09:10:45Z</time>
      </trkpt>
      <trkpt lat="43.5663" lon="1.16622">
        <ele>218.1</ele>
        <time>2017-06-04T09:10:50Z</time>
      </trkpt>
      <trkpt lat="43.56621" lon="1.16621">
        <ele>217.5</ele>
        <time>2017-06-04T09:10:55Z</time>
      </trkpt>
      <trkpt lat="43.5661" lon="1.16619">
        <ele>217</ele>
        <time>2017-06-04T09:11:00Z</time>
      </trkpt>
      <trkpt lat="43.56601" lon="1.16614">
        <ele>216.5</ele>
        <time>2017-06-04T09:11:05Z</time>
      </trkpt>
      <trkpt lat="43.56591" lon="1.16614">
        <ele>216.1</ele>
        <time>2017-06-04T09:11:10Z</time>
      </trkpt>
      <trkpt lat="43.56582" lon="1.16614">
        <ele>215.5</ele>
        <time>2017-06-04T09:11:15Z</time>
      </trkpt>
      <trkpt lat="43.56573" lon="1.16613">
        <ele>214.9</ele>
        <time>2017-06-04T09:11:20Z</time>
      </trkpt>
      <trkpt lat="43.56563" lon="1.16608">
        <ele>214.3</ele>
        <time>2017-06-04T09:11:25Z</time>
      </trkpt>
      <trkpt lat="43.56554" lon="1.16604">
        <ele>213.7</ele>
        <time>2017-06-04T09:11:30Z</time>
      </trkpt>
      <trkpt lat="43.56544" lon="1.16601">
        <ele>213.3</ele>
        <time>2017-06-04T09:11:35Z</time>
      </trkpt>
      <trkpt lat="43.56535" lon="1.16598">
        <ele>212.8</ele>
        <time>2017-06-04T09:11:42Z</time>
      </trkpt>
      <trkpt lat="43.56526" lon="1.16597">
        <ele>212.4</ele>
        <time>2017-06-04T09:11:47Z</time>
      </trkpt>
      <trkpt lat="43.56516" lon="1.16598">
        <ele>212.1</ele>
        <time>2017-06-04T09:11:52Z</time>
      </trkpt>
      <trkpt lat="43.5651" lon="1.16588">
        <ele>211.9</ele>
        <time>2017-06-04T09:11:58Z</time>
      </trkpt>
      <trkpt lat="43.56509" lon="1.16573">
        <ele>211.7</ele>
        <time>2017-06-04T09:12:03Z</time>
      </trkpt>
      <trkpt lat="43.56506" lon="1.1656">
        <ele>211.7</ele>
        <time>2017-06-04T09:12:08Z</time>
      </trkpt>
      <trkpt lat="43.56506" lon="1.16546">
        <ele>211.8</ele>
        <time>2017-06-04T09:12:15Z</time>
      </trkpt>
      <trkpt lat="43.56505" lon="1.16533">
        <ele>212.1</ele>
        <time>2017-06-04T09:12:43Z</time>
      </trkpt>
      <trkpt lat="43.56506" lon="1.16518">
        <ele>212.3</ele>
        <time>2017-06-04T09:12:48Z</time>
      </trkpt>
      <trkpt lat="43.56506" lon="1.16505">
        <ele>212.5</ele>
        <time>2017-06-04T09:12:52Z</time>
      </trkpt>
      <trkpt lat="43.56507" lon="1.16493">
        <ele>212.5</ele>
        <time>2017-06-04T09:12:56Z</time>
      </trkpt>
      <trkpt lat="43.56507" lon="1.1648">
        <ele>212.6</ele>
        <time>2017-06-04T09:13:00Z</time>
      </trkpt>
      <trkpt lat="43.56509" lon="1.16465">
        <ele>212.7</ele>
        <time>2017-06-04T09:13:05Z</time>
      </trkpt>
      <trkpt lat="43.56511" lon="1.16451">
        <ele>212.7</ele>
        <time>2017-06-04T09:13:10Z</time>
      </trkpt>
      <trkpt lat="43.56514" lon="1.16438">
        <ele>212.7</ele>
        <time>2017-06-04T09:13:14Z</time>
      </trkpt>
      <trkpt lat="43.56516" lon="1.16426">
        <ele>212.7</ele>
        <time>2017-06-04T09:13:18Z</time>
      </trkpt>
      <trkpt lat="43.56517" lon="1.16412">
        <ele>212.7</ele>
        <time>2017-06-04T09:13:22Z</time>
      </trkpt>
      <trkpt lat="43.56519" lon="1.16398">
        <ele>212.7</ele>
        <time>2017-06-04T09:13:27Z</time>
      </trkpt>
      <trkpt lat="43.56521" lon="1.16383">
        <ele>212.7</ele>
        <time>2017-06-04T09:13:32Z</time>
      </trkpt>
      <trkpt lat="43.56524" lon="1.16371">
        <ele>212.8</ele>
        <time>2017-06-04T09:13:36Z</time>
      </trkpt>
      <trkpt lat="43.56526" lon="1.16358">
        <ele>212.9</ele>
        <time>2017-06-04T09:13:40Z</time>
      </trkpt>
      <trkpt lat="43.56528" lon="1.16346">
        <ele>213.1</ele>
        <time>2017-06-04T09:13:44Z</time>
      </trkpt>
      <trkpt lat="43.5653" lon="1.16334">
        <ele>213.3</ele>
        <time>2017-06-04T09:13:48Z</time>
      </trkpt>
      <trkpt lat="43.56533" lon="1.16321">
        <ele>213.5</ele>
        <time>2017-06-04T09:13:52Z</time>
      </trkpt>
      <trkpt lat="43.56535" lon="1.16305">
        <ele>213.7</ele>
        <time>2017-06-04T09:13:56Z</time>
      </trkpt>
      <trkpt lat="43.56538" lon="1.16292">
        <ele>214.1</ele>
        <time>2017-06-04T09:13:58Z</time>
      </trkpt>
      <trkpt lat="43.5654" lon="1.16277">
        <ele>214.5</ele>
        <time>2017-06-04T09:14:01Z</time>
      </trkpt>
      <trkpt lat="43.56544" lon="1.16266">
        <ele>214.8</ele>
        <time>2017-06-04T09:14:15Z</time>
      </trkpt>
      <trkpt lat="43.56546" lon="1.16253">
        <ele>215.2</ele>
        <time>2017-06-04T09:14:19Z</time>
      </trkpt>
      <trkpt lat="43.56547" lon="1.16241">
        <ele>215.5</ele>
        <time>2017-06-04T09:14:23Z</time>
      </trkpt>
      <trkpt lat="43.5655" lon="1.16226">
        <ele>215.7</ele>
        <time>2017-06-04T09:14:27Z</time>
      </trkpt>
      <trkpt lat="43.56552" lon="1.16212">
        <ele>216</ele>
        <time>2017-06-04T09:14:31Z</time>
      </trkpt>
      <trkpt lat="43.56555" lon="1.16199">
        <ele>216.2</ele>
        <time>2017-06-04T09:14:35Z</time>
      </trkpt>
      <trkpt lat="43.56557" lon="1.16186">
        <ele>216.3</ele>
        <time>2017-06-04T09:14:40Z</time>
      </trkpt>
      <trkpt lat="43.56548" lon="1.16179">
        <ele>216.4</ele>
        <time>2017-06-04T09:14:45Z</time>
      </trkpt>
      <trkpt lat="43.56537" lon="1.16178">
        <ele>216.4</ele>
        <time>2017-06-04T09:14:50Z</time>
      </trkpt>
      <trkpt lat="43.56528" lon="1.16176">
        <ele>216.3</ele>
        <time>2017-06-04T09:14:54Z</time>
      </trkpt>
      <trkpt lat="43.56519" lon="1.16175">
        <ele>216.2</ele>
        <time>2017-06-04T09:15:01Z</time>
      </trkpt>
      <trkpt lat="43.56509" lon="1.16171">
        <ele>216.1</ele>
        <time>2017-06-04T09:15:05Z</time>
      </trkpt>
      <trkpt lat="43.56499" lon="1.16168">
        <ele>216.1</ele>
        <time>2017-06-04T09:15:11Z</time>
      </trkpt>
      <trkpt lat="43.5649" lon="1.16164">
        <ele>216.2</ele>
        <time>2017-06-04T09:15:15Z</time>
      </trkpt>
      <trkpt lat="43.5648" lon="1.16162">
        <ele>216.4</ele>
        <time>2017-06-04T09:15:19Z</time>
      </trkpt>
      <trkpt lat="43.5647" lon="1.16158">
        <ele>216.6</ele>
        <time>2017-06-04T09:15:24Z</time>
      </trkpt>
      <trkpt lat="43.56462" lon="1.1615">
        <ele>216.9</ele>
        <time>2017-06-04T09:15:28Z</time>
      </trkpt>
      <trkpt lat="43.56453" lon="1.16149">
        <ele>217.3</ele>
        <time>2017-06-04T09:15:32Z</time>
      </trkpt>
      <trkpt lat="43.56445" lon="1.16143">
        <ele>217.6</ele>
        <time>2017-06-04T09:15:36Z</time>
      </trkpt>
      <trkpt lat="43.56437" lon="1.16135">
        <ele>218</ele>
        <time>2017-06-04T09:15:40Z</time>
      </trkpt>
      <trkpt lat="43.56428" lon="1.16133">
        <ele>218.4</ele>
        <time>2017-06-04T09:15:44Z</time>
      </trkpt>
      <trkpt lat="43.5642" lon="1.16127">
        <ele>218.7</ele>
        <time>2017-06-04T09:15:48Z</time>
      </trkpt>
      <trkpt lat="43.5641" lon="1.16121">
        <ele>219.1</ele>
        <time>2017-06-04T09:15:53Z</time>
      </trkpt>
      <trkpt lat="43.56417" lon="1.16132">
        <ele>219.4</ele>
        <time>2017-06-04T09:16:24Z</time>
      </trkpt>
      <trkpt lat="43.56407" lon="1.16128">
        <ele>219.6</ele>
        <time>2017-06-04T09:16:33Z</time>
      </trkpt>
      <trkpt lat="43.564" lon="1.16118">
        <ele>219.8</ele>
        <time>2017-06-04T09:16:38Z</time>
      </trkpt>
      <trkpt lat="43.56389" lon="1.16114">
        <ele>219.9</ele>
        <time>2017-06-04T09:16:43Z</time>
      </trkpt>
      <trkpt lat="43.56379" lon="1.16116">
        <ele>220</ele>
        <time>2017-06-04T09:16:47Z</time>
      </trkpt>
      <trkpt lat="43.56371" lon="1.16121">
        <ele>220</ele>
        <time>2017-06-04T09:16:51Z</time>
      </trkpt>
      <trkpt lat="43.56361" lon="1.16115">
        <ele>220</ele>
        <time>2017-06-04T09:16:57Z</time>
      </trkpt>
      <trkpt lat="43.56351" lon="1.1612">
        <ele>220.1</ele>
        <time>2017-06-04T09:17:02Z</time>
      </trkpt>
      <trkpt lat="43.56342" lon="1.16119">
        <ele>220.2</ele>
        <time>2017-06-04T09:17:06Z</time>
      </trkpt>
      <trkpt lat="43.56332" lon="1.16119">
        <ele>220.3</ele>
        <time>2017-06-04T09:17:10Z</time>
      </trkpt>
      <trkpt lat="43.56322" lon="1.16118">
        <ele>220.4</ele>
        <time>2017-06-04T09:17:14Z</time>
      </trkpt>
      <trkpt lat="43.56311" lon="1.16116">
        <ele>220.5</ele>
        <time>2017-06-04T09:17:19Z</time>
      </trkpt>
      <trkpt lat="43.56299" lon="1.16117">
        <ele>220.5</ele>
        <time>2017-06-04T09:17:23Z</time>
      </trkpt>
      <trkpt lat="43.56289" lon="1.16121">
        <ele>220.7</ele>
        <time>2017-06-04T09:17:27Z</time>
      </trkpt>
      <trkpt lat="43.5628" lon="1.16118">
        <ele>220.9</ele>
        <time>2017-06-04T09:17:31Z</time>
      </trkpt>
      <trkpt lat="43.5627" lon="1.16115">
        <ele>221.2</ele>
        <time>2017-06-04T09:17:37Z</time>
      </trkpt>
      <trkpt lat="43.56259" lon="1.16114">
        <ele>221.5</ele>
        <time>2017-06-04T09:17:42Z</time>
      </trkpt>
      <trkpt lat="43.5625" lon="1.16114">
        <ele>221.9</ele>
        <time>2017-06-04T09:17:46Z</time>
      </trkpt>
      <trkpt lat="43.5624" lon="1.16114">
        <ele>222.3</ele>
        <time>2017-06-04T09:17:51Z</time>
      </trkpt>
      <trkpt lat="43.56231" lon="1.1611">
        <ele>222.6</ele>
        <time>2017-06-04T09:17:56Z</time>
      </trkpt>
      <trkpt lat="43.56222" lon="1.16105">
        <ele>223</ele>
        <time>2017-06-04T09:18:01Z</time>
      </trkpt>
      <trkpt lat="43.56212" lon="1.16105">
        <ele>223.4</ele>
        <time>2017-06-04T09:18:06Z</time>
      </trkpt>
      <trkpt lat="43.56202" lon="1.16102">
        <ele>223.7</ele>
        <time>2017-06-04T09:18:11Z</time>
      </trkpt>
      <trkpt lat="43.56192" lon="1.16099">
        <ele>224.1</ele>
        <time>2017-06-04T09:18:16Z</time>
      </trkpt>
      <trkpt lat="43.56183" lon="1.16099">
        <ele>224.3</ele>
        <time>2017-06-04T09:18:22Z</time>
      </trkpt>
      <trkpt lat="43.56172" lon="1.16097">
        <ele>224.5</ele>
        <time>2017-06-04T09:18:27Z</time>
      </trkpt>
      <trkpt lat="43.56161" lon="1.16097">
        <ele>224.6</ele>
        <time>2017-06-04T09:18:31Z</time>
      </trkpt>
      <trkpt lat="43.56152" lon="1.16096">
        <ele>224.7</ele>
        <time>2017-06-04T09:18:35Z</time>
      </trkpt>
      <trkpt lat="43.56142" lon="1.16092">
        <ele>224.9</ele>
        <time>2017-06-04T09:18:40Z</time>
      </trkpt>
      <trkpt lat="43.56137" lon="1.16105">
        <ele>225</ele>
        <time>2017-06-04T09:18:46Z</time>
      </trkpt>
      <trkpt lat="43.56138" lon="1.16119">
        <ele>225.1</ele>
        <time>2017-06-04T09:18:51Z</time>
      </trkpt>
      <trkpt lat="43.56138" lon="1.16133">
        <ele>225.2</ele>
        <time>2017-06-04T09:18:56Z</time>
      </trkpt>
      <trkpt lat="43.56138" lon="1.16148">
        <ele>225.2</ele>
        <time>2017-06-04T09:19:01Z</time>
      </trkpt>
      <trkpt lat="43.56138" lon="1.16161">
        <ele>225.2</ele>
        <time>2017-06-04T09:19:05Z</time>
      </trkpt>
      <trkpt lat="43.56136" lon="1.16173">
        <ele>225.1</ele>
        <time>2017-06-04T09:19:09Z</time>
      </trkpt>
      <trkpt lat="43.56134" lon="1.16186">
        <ele>225.2</ele>
        <time>2017-06-04T09:19:13Z</time>
      </trkpt>
      <trkpt lat="43.56134" lon="1.16202">
        <ele>225.3</ele>
        <time>2017-06-04T09:19:18Z</time>
      </trkpt>
      <trkpt lat="43.56134" lon="1.16216">
        <ele>225.4</ele>
        <time>2017-06-04T09:19:22Z</time>
      </trkpt>
      <trkpt lat="43.56134" lon="1.16229">
        <ele>225.5</ele>
        <time>2017-06-04T09:19:26Z</time>
      </trkpt>
      <trkpt lat="43.56133" lon="1.16242">
        <ele>225.5</ele>
        <time>2017-06-04T09:19:30Z</time>
      </trkpt>
      <trkpt lat="43.5613" lon="1.16229">
        <ele>225.5</ele>
        <time>2017-06-04T09:19:37Z</time>
      </trkpt>
      <trkpt lat="43.56131" lon="1.16213">
        <ele>225.4</ele>
        <time>2017-06-04T09:19:41Z</time>
      </trkpt>
      <trkpt lat="43.56133" lon="1.16198">
        <ele>225.4</ele>
        <time>2017-06-04T09:19:45Z</time>
      </trkpt>
      <trkpt lat="43.56134" lon="1.16185">
        <ele>225.5</ele>
        <time>2017-06-04T09:19:49Z</time>
      </trkpt>
      <trkpt lat="43.56135" lon="1.16169">
        <ele>225.5</ele>
        <time>2017-06-04T09:19:54Z</time>
      </trkpt>
      <trkpt lat="43.56136" lon="1.16155">
        <ele>225.7</ele>
        <time>2017-06-04T09:19:58Z</time>
      </trkpt>
      <trkpt lat="43.56136" lon="1.16143">
        <ele>225.7</ele>
        <time>2017-06-04T09:20:02Z</time>
      </trkpt>
      <trkpt lat="43.56135" lon="1.16155">
        <ele>225.7</ele>
        <time>2017-06-04T09:20:08Z</time>
      </trkpt>
      <trkpt lat="43.56135" lon="1.1617">
        <ele>225.5</ele>
        <time>2017-06-04T09:20:12Z</time>
      </trkpt>
      <trkpt lat="43.56133" lon="1.16184">
        <ele>225.4</ele>
        <time>2017-06-04T09:20:16Z</time>
      </trkpt>
      <trkpt lat="43.56134" lon="1.16198">
        <ele>225.1</ele>
        <time>2017-06-04T09:20:20Z</time>
      </trkpt>
      <trkpt lat="43.56132" lon="1.16213">
        <ele>224.8</ele>
        <time>2017-06-04T09:20:24Z</time>
      </trkpt>
      <trkpt lat="43.56131" lon="1.16227">
        <ele>224.6</ele>
        <time>2017-06-04T09:20:28Z</time>
      </trkpt>
      <trkpt lat="43.56131" lon="1.16241">
        <ele>224.4</ele>
        <time>2017-06-04T09:20:32Z</time>
      </trkpt>
      <trkpt lat="43.56129" lon="1.16253">
        <ele>224.1</ele>
        <time>2017-06-04T09:20:36Z</time>
      </trkpt>
      <trkpt lat="43.5613" lon="1.16267">
        <ele>223.8</ele>
        <time>2017-06-04T09:20:40Z</time>
      </trkpt>
      <trkpt lat="43.5613" lon="1.16279">
        <ele>223.5</ele>
        <time>2017-06-04T09:20:44Z</time>
      </trkpt>
      <trkpt lat="43.56129" lon="1.16292">
        <ele>223.4</ele>
        <time>2017-06-04T09:20:48Z</time>
      </trkpt>
      <trkpt lat="43.56129" lon="1.16307">
        <ele>223.2</ele>
        <time>2017-06-04T09:20:53Z</time>
      </trkpt>
      <trkpt lat="43.56128" lon="1.16321">
        <ele>223</ele>
        <time>2017-06-04T09:20:57Z</time>
      </trkpt>
      <trkpt lat="43.56127" lon="1.16336">
        <ele>222.8</ele>
        <time>2017-06-04T09:21:01Z</time>
      </trkpt>
      <trkpt lat="43.56125" lon="1.16349">
        <ele>222.7</ele>
        <time>2017-06-04T09:21:05Z</time>
      </trkpt>
      <trkpt lat="43.56124" lon="1.16362">
        <ele>222.6</ele>
        <time>2017-06-04T09:21:09Z</time>
      </trkpt>
      <trkpt lat="43.56122" lon="1.16377">
        <ele>222.5</ele>
        <time>2017-06-04T09:21:14Z</time>
      </trkpt>
      <trkpt lat="43.5612" lon="1.1639">
        <ele>222.5</ele>
        <time>2017-06-04T09:21:18Z</time>
      </trkpt>
      <trkpt lat="43.56118" lon="1.16402">
        <ele>222.3</ele>
        <time>2017-06-04T09:21:22Z</time>
      </trkpt>
      <trkpt lat="43.56116" lon="1.16415">
        <ele>222.1</ele>
        <time>2017-06-04T09:21:26Z</time>
      </trkpt>
      <trkpt lat="43.56112" lon="1.16428">
        <ele>221.9</ele>
        <time>2017-06-04T09:21:30Z</time>
      </trkpt>
      <trkpt lat="43.5611" lon="1.16443">
        <ele>221.7</ele>
        <time>2017-06-04T09:21:34Z</time>
      </trkpt>
      <trkpt lat="43.56108" lon="1.16456">
        <ele>221.5</ele>
        <time>2017-06-04T09:21:38Z</time>
      </trkpt>
      <trkpt lat="43.56105" lon="1.16468">
        <ele>221.4</ele>
        <time>2017-06-04T09:21:43Z</time>
      </trkpt>
      <trkpt lat="43.56102" lon="1.16481">
        <ele>221.1</ele>
        <time>2017-06-04T09:21:48Z</time>
      </trkpt>
      <trkpt lat="43.56101" lon="1.16495">
        <ele>220.7</ele>
        <time>2017-06-04T09:21:52Z</time>
      </trkpt>
      <trkpt lat="43.561" lon="1.16508">
        <ele>220.3</ele>
        <time>2017-06-04T09:21:56Z</time>
      </trkpt>
      <trkpt lat="43.56098" lon="1.16523">
        <ele>219.8</ele>
        <time>2017-06-04T09:22:01Z</time>
      </trkpt>
      <trkpt lat="43.56097" lon="1.16536">
        <ele>219.3</ele>
        <time>2017-06-04T09:22:05Z</time>
      </trkpt>
      <trkpt lat="43.56096" lon="1.16548">
        <ele>218.7</ele>
        <time>2017-06-04T09:22:09Z</time>
      </trkpt>
      <trkpt lat="43.56094" lon="1.16561">
        <ele>218.2</ele>
        <time>2017-06-04T09:22:13Z</time>
      </trkpt>
      <trkpt lat="43.56093" lon="1.16574">
        <ele>217.6</ele>
        <time>2017-06-04T09:22:17Z</time>
      </trkpt>
      <trkpt lat="43.56091" lon="1.16589">
        <ele>217</ele>
        <time>2017-06-04T09:22:22Z</time>
      </trkpt>
      <trkpt lat="43.56091" lon="1.16603">
        <ele>216.4</ele>
        <time>2017-06-04T09:22:26Z</time>
      </trkpt>
      <trkpt lat="43.56091" lon="1.16617">
        <ele>215.7</ele>
        <time>2017-06-04T09:22:30Z</time>
      </trkpt>
      <trkpt lat="43.5609" lon="1.1663">
        <ele>215.2</ele>
        <time>2017-06-04T09:22:34Z</time>
      </trkpt>
      <trkpt lat="43.56089" lon="1.16643">
        <ele>214.6</ele>
        <time>2017-06-04T09:22:38Z</time>
      </trkpt>
      <trkpt lat="43.56089" lon="1.16657">
        <ele>214.2</ele>
        <time>2017-06-04T09:22:42Z</time>
      </trkpt>
      <trkpt lat="43.56089" lon="1.16671">
        <ele>213.7</ele>
        <time>2017-06-04T09:22:46Z</time>
      </trkpt>
      <trkpt lat="43.56088" lon="1.16684">
        <ele>213.4</ele>
        <time>2017-06-04T09:22:50Z</time>
      </trkpt>
      <trkpt lat="43.56087" lon="1.16697">
        <ele>213.1</ele>
        <time>2017-06-04T09:22:54Z</time>
      </trkpt>
      <trkpt lat="43.56087" lon="1.1671">
        <ele>212.7</ele>
        <time>2017-06-04T09:22:58Z</time>
      </trkpt>
      <trkpt lat="43.56086" lon="1.16725">
        <ele>212.4</ele>
        <time>2017-06-04T09:23:03Z</time>
      </trkpt>
      <trkpt lat="43.56085" lon="1.16738">
        <ele>212.1</ele>
        <time>2017-06-04T09:23:07Z</time>
      </trkpt>
      <trkpt lat="43.56085" lon="1.16751">
        <ele>211.8</ele>
        <time>2017-06-04T09:23:11Z</time>
      </trkpt>
      <trkpt lat="43.56084" lon="1.16763">
        <ele>211.6</ele>
        <time>2017-06-04T09:23:15Z</time>
      </trkpt>
      <trkpt lat="43.56083" lon="1.16777">
        <ele>211.5</ele>
        <time>2017-06-04T09:23:19Z</time>
      </trkpt>
      <trkpt lat="43.56083" lon="1.1679">
        <ele>211.3</ele>
        <time>2017-06-04T09:23:23Z</time>
      </trkpt>
      <trkpt lat="43.56082" lon="1.16804">
        <ele>211.1</ele>
        <time>2017-06-04T09:23:27Z</time>
      </trkpt>
      <trkpt lat="43.56082" lon="1.16817">
        <ele>210.9</ele>
        <time>2017-06-04T09:23:31Z</time>
      </trkpt>
      <trkpt lat="43.56081" lon="1.1683">
        <ele>210.7</ele>
        <time>2017-06-04T09:23:35Z</time>
      </trkpt>
      <trkpt lat="43.5608" lon="1.16843">
        <ele>210.6</ele>
        <time>2017-06-04T09:23:39Z</time>
      </trkpt>
      <trkpt lat="43.56079" lon="1.16857">
        <ele>210.6</ele>
        <time>2017-06-04T09:23:43Z</time>
      </trkpt>
      <trkpt lat="43.56078" lon="1.16869">
        <ele>210.7</ele>
        <time>2017-06-04T09:23:47Z</time>
      </trkpt>
      <trkpt lat="43.56077" lon="1.16882">
        <ele>210.8</ele>
        <time>2017-06-04T09:23:51Z</time>
      </trkpt>
      <trkpt lat="43.56076" lon="1.16895">
        <ele>210.9</ele>
        <time>2017-06-04T09:23:55Z</time>
      </trkpt>
      <trkpt lat="43.56074" lon="1.16909">
        <ele>211</ele>
        <time>2017-06-04T09:23:59Z</time>
      </trkpt>
      <trkpt lat="43.56074" lon="1.16924">
        <ele>211.1</ele>
        <time>2017-06-04T09:24:04Z</time>
      </trkpt>
      <trkpt lat="43.56074" lon="1.16938">
        <ele>211.3</ele>
        <time>2017-06-04T09:24:09Z</time>
      </trkpt>
      <trkpt lat="43.56074" lon="1.16952">
        <ele>211.5</ele>
        <time>2017-06-04T09:24:14Z</time>
      </trkpt>
      <trkpt lat="43.56072" lon="1.16966">
        <ele>211.6</ele>
        <time>2017-06-04T09:24:19Z</time>
      </trkpt>
      <trkpt lat="43.56071" lon="1.16979">
        <ele>211.8</ele>
        <time>2017-06-04T09:24:23Z</time>
      </trkpt>
      <trkpt lat="43.56069" lon="1.16991">
        <ele>211.8</ele>
        <time>2017-06-04T09:24:29Z</time>
      </trkpt>
      <trkpt lat="43.5606" lon="1.16991">
        <ele>211.8</ele>
        <time>2017-06-04T09:24:35Z</time>
      </trkpt>
      <trkpt lat="43.5605" lon="1.16988">
        <ele>211.7</ele>
        <time>2017-06-04T09:24:40Z</time>
      </trkpt>
      <trkpt lat="43.56041" lon="1.16984">
        <ele>211.6</ele>
        <time>2017-06-04T09:24:45Z</time>
      </trkpt>
      <trkpt lat="43.56031" lon="1.16983">
        <ele>211.5</ele>
        <time>2017-06-04T09:24:49Z</time>
      </trkpt>
      <trkpt lat="43.56021" lon="1.16982">
        <ele>211.5</ele>
        <time>2017-06-04T09:24:54Z</time>
      </trkpt>
      <trkpt lat="43.56012" lon="1.16981">
        <ele>211.5</ele>
        <time>2017-06-04T09:24:58Z</time>
      </trkpt>
      <trkpt lat="43.56003" lon="1.16979">
        <ele>211.5</ele>
        <time>2017-06-04T09:25:02Z</time>
      </trkpt>
      <trkpt lat="43.55992" lon="1.16978">
        <ele>211.5</ele>
        <time>2017-06-04T09:25:07Z</time>
      </trkpt>
      <trkpt lat="43.55982" lon="1.16977">
        <ele>211.5</ele>
        <time>2017-06-04T09:25:11Z</time>
      </trkpt>
      <trkpt lat="43.55972" lon="1.16974">
        <ele>211.4</ele>
        <time>2017-06-04T09:25:16Z</time>
      </trkpt>
      <trkpt lat="43.55962" lon="1.16972">
        <ele>211.3</ele>
        <time>2017-06-04T09:25:21Z</time>
      </trkpt>
      <trkpt lat="43.55952" lon="1.16968">
        <ele>211.1</ele>
        <time>2017-06-04T09:25:26Z</time>
      </trkpt>
      <trkpt lat="43.55942" lon="1.16963">
        <ele>210.8</ele>
        <time>2017-06-04T09:25:31Z</time>
      </trkpt>
      <trkpt lat="43.55931" lon="1.16961">
        <ele>210.5</ele>
        <time>2017-06-04T09:25:36Z</time>
      </trkpt>
      <trkpt lat="43.55921" lon="1.16964">
        <ele>210</ele>
        <time>2017-06-04T09:25:41Z</time>
      </trkpt>
      <trkpt lat="43.55919" lon="1.16976">
        <ele>209.5</ele>
        <time>2017-06-04T09:26:08Z</time>
      </trkpt>
      <trkpt lat="43.55913" lon="1.1699">
        <ele>208.8</ele>
        <time>2017-06-04T09:26:12Z</time>
      </trkpt>
      <trkpt lat="43.55908" lon="1.17004">
        <ele>208.3</ele>
        <time>2017-06-04T09:26:16Z</time>
      </trkpt>
      <trkpt lat="43.55902" lon="1.17014">
        <ele>207.8</ele>
        <time>2017-06-04T09:26:23Z</time>
      </trkpt>
      <trkpt lat="43.55898" lon="1.17027">
        <ele>207.5</ele>
        <time>2017-06-04T09:26:28Z</time>
      </trkpt>
      <trkpt lat="43.55895" lon="1.1704">
        <ele>207.2</ele>
        <time>2017-06-04T09:26:31Z</time>
      </trkpt>
      <trkpt lat="43.55892" lon="1.17054">
        <ele>207</ele>
        <time>2017-06-04T09:26:35Z</time>
      </trkpt>
      <trkpt lat="43.55889" lon="1.17067">
        <ele>206.9</ele>
        <time>2017-06-04T09:26:39Z</time>
      </trkpt>
      <trkpt lat="43.55886" lon="1.1708">
        <ele>206.9</ele>
        <time>2017-06-04T09:26:43Z</time>
      </trkpt>
      <trkpt lat="43.55882" lon="1.17093">
        <ele>207</ele>
        <time>2017-06-04T09:26:47Z</time>
      </trkpt>
      <trkpt lat="43.5588" lon="1.17107">
        <ele>207.2</ele>
        <time>2017-06-04T09:26:51Z</time>
      </trkpt>
      <trkpt lat="43.55876" lon="1.17119">
        <ele>207.3</ele>
        <time>2017-06-04T09:26:55Z</time>
      </trkpt>
      <trkpt lat="43.55871" lon="1.17132">
        <ele>207.4</ele>
        <time>2017-06-04T09:26:59Z</time>
      </trkpt>
      <trkpt lat="43.55872" lon="1.17144">
        <ele>207.3</ele>
        <time>2017-06-04T09:27:06Z</time>
      </trkpt>
      <trkpt lat="43.55869" lon="1.17157">
        <ele>207</ele>
        <time>2017-06-04T09:27:10Z</time>
      </trkpt>
      <trkpt lat="43.55866" lon="1.17169">
        <ele>206.8</ele>
        <time>2017-06-04T09:27:14Z</time>
      </trkpt>
      <trkpt lat="43.55863" lon="1.17181">
        <ele>206.6</ele>
        <time>2017-06-04T09:27:18Z</time>
      </trkpt>
      <trkpt lat="43.55859" lon="1.17193">
        <ele>206.5</ele>
        <time>2017-06-04T09:27:22Z</time>
      </trkpt>
      <trkpt lat="43.55857" lon="1.17206">
        <ele>206.3</ele>
        <time>2017-06-04T09:27:26Z</time>
      </trkpt>
      <trkpt lat="43.55854" lon="1.17218">
        <ele>206.1</ele>
        <time>2017-06-04T09:27:30Z</time>
      </trkpt>
      <trkpt lat="43.55852" lon="1.17231">
        <ele>205.9</ele>
        <time>2017-06-04T09:27:43Z</time>
      </trkpt>
      <trkpt lat="43.55848" lon="1.17245">
        <ele>205.6</ele>
        <time>2017-06-04T09:27:47Z</time>
      </trkpt>
      <trkpt lat="43.55845" lon="1.17257">
        <ele>205.4</ele>
        <time>2017-06-04T09:27:51Z</time>
      </trkpt>
      <trkpt lat="43.55843" lon="1.1727">
        <ele>205.2</ele>
        <time>2017-06-04T09:27:56Z</time>
      </trkpt>
      <trkpt lat="43.5584" lon="1.17285">
        <ele>205.1</ele>
        <time>2017-06-04T09:28:01Z</time>
      </trkpt>
      <trkpt lat="43.55837" lon="1.173">
        <ele>205.2</ele>
        <time>2017-06-04T09:28:06Z</time>
      </trkpt>
      <trkpt lat="43.55834" lon="1.17314">
        <ele>205.3</ele>
        <time>2017-06-04T09:28:11Z</time>
      </trkpt>
      <trkpt lat="43.55831" lon="1.17328">
        <ele>205.4</ele>
        <time>2017-06-04T09:28:16Z</time>
      </trkpt>
      <trkpt lat="43.55828" lon="1.17341">
        <ele>205.5</ele>
        <time>2017-06-04T09:28:21Z</time>
      </trkpt>
      <trkpt lat="43.55824" lon="1.17356">
        <ele>205.7</ele>
        <time>2017-06-04T09:28:26Z</time>
      </trkpt>
      <trkpt lat="43.55821" lon="1.17367">
        <ele>206</ele>
        <time>2017-06-04T09:28:30Z</time>
      </trkpt>
      <trkpt lat="43.55816" lon="1.17379">
        <ele>206.3</ele>
        <time>2017-06-04T09:28:34Z</time>
      </trkpt>
      <trkpt lat="43.55812" lon="1.17393">
        <ele>206.7</ele>
        <time>2017-06-04T09:28:39Z</time>
      </trkpt>
      <trkpt lat="43.55809" lon="1.17407">
        <ele>207.3</ele>
        <time>2017-06-04T09:28:44Z</time>
      </trkpt>
      <trkpt lat="43.55806" lon="1.17421">
        <ele>207.7</ele>
        <time>2017-06-04T09:28:49Z</time>
      </trkpt>
      <trkpt lat="43.55802" lon="1.17435">
        <ele>208.2</ele>
        <time>2017-06-04T09:28:54Z</time>
      </trkpt>
      <trkpt lat="43.55799" lon="1.17447">
        <ele>208.5</ele>
        <time>2017-06-04T09:28:58Z</time>
      </trkpt>
      <trkpt lat="43.55796" lon="1.17462">
        <ele>208.7</ele>
        <time>2017-06-04T09:29:03Z</time>
      </trkpt>
      <trkpt lat="43.55792" lon="1.17476">
        <ele>208.8</ele>
        <time>2017-06-04T09:29:08Z</time>
      </trkpt>
      <trkpt lat="43.55789" lon="1.17491">
        <ele>208.8</ele>
        <time>2017-06-04T09:29:13Z</time>
      </trkpt>
      <trkpt lat="43.55787" lon="1.17504">
        <ele>208.8</ele>
        <time>2017-06-04T09:29:18Z</time>
      </trkpt>
      <trkpt lat="43.55783" lon="1.17516">
        <ele>208.8</ele>
        <time>2017-06-04T09:29:23Z</time>
      </trkpt>
      <trkpt lat="43.55779" lon="1.1753">
        <ele>208.7</ele>
        <time>2017-06-04T09:29:28Z</time>
      </trkpt>
      <trkpt lat="43.55776" lon="1.17545">
        <ele>208.5</ele>
        <time>2017-06-04T09:29:33Z</time>
      </trkpt>
      <trkpt lat="43.55772" lon="1.17559">
        <ele>208.4</ele>
        <time>2017-06-04T09:29:38Z</time>
      </trkpt>
      <trkpt lat="43.55769" lon="1.17572">
        <ele>208.3</ele>
        <time>2017-06-04T09:29:43Z</time>
      </trkpt>
      <trkpt lat="43.55766" lon="1.17587">
        <ele>208.2</ele>
        <time>2017-06-04T09:29:47Z</time>
      </trkpt>
      <trkpt lat="43.55764" lon="1.17599">
        <ele>208.2</ele>
        <time>2017-06-04T09:29:51Z</time>
      </trkpt>
      <trkpt lat="43.5576" lon="1.17611">
        <ele>208.3</ele>
        <time>2017-06-04T09:29:55Z</time>
      </trkpt>
      <trkpt lat="43.55756" lon="1.17625">
        <ele>208.3</ele>
        <time>2017-06-04T09:30:00Z</time>
      </trkpt>
      <trkpt lat="43.55753" lon="1.17637">
        <ele>208.3</ele>
        <time>2017-06-04T09:30:05Z</time>
      </trkpt>
      <trkpt lat="43.5575" lon="1.17651">
        <ele>208.4</ele>
        <time>2017-06-04T09:30:09Z</time>
      </trkpt>
      <trkpt lat="43.55754" lon="1.17663">
        <ele>208.3</ele>
        <time>2017-06-04T09:30:15Z</time>
      </trkpt>
      <trkpt lat="43.55756" lon="1.17664">
        <ele>208.3</ele>
        <time>2017-06-04T09:30:18Z</time>
      </trkpt>
    </trkseg>
  </trk>
</gpx>